<?xml version="1.0" encoding="UTF-8" standalone="no" ?>
<gpx xmlns="http://www.topografix.com/GPX/1/1" xmlns:xsi="http://www.w3.org/2001/XMLSchema-instance" xsi:schemaLocation="http://www.topografix.com/GPX/1/1 http://www.topografix.com/GPX/1/1/gpx.xsd" version="1.1" creator="VisuGPX - https://www.visugpx.com">
  <metadata>
    <name>Yenne / Lacs de Chevelu2</name>
    <desc><![CDATA[Savoie.
Départ de Yenne.
Passage à Jongieux.
Arrivée aux lacs de St-Jean de Chevelu.]]></desc>
  </metadata>
  <trk>
    <name><![CDATA[20180614082400-L1i9U]]></name>
    <trkseg>
      <trkpt lat="45.70557" lon="5.75759">
        <ele>227</ele>
        <time>2018-06-14T08:12:58Z</time>
      </trkpt>
      <trkpt lat="45.70555" lon="5.75746">
        <ele>228</ele>
        <time>2018-06-14T08:13:58Z</time>
      </trkpt>
      <trkpt lat="45.70536" lon="5.75717">
        <ele>228</ele>
        <time>2018-06-14T08:14:58Z</time>
      </trkpt>
      <trkpt lat="45.70521" lon="5.75705">
        <ele>228</ele>
        <time>2018-06-14T08:15:58Z</time>
      </trkpt>
      <trkpt lat="45.70527" lon="5.75697">
        <ele>228</ele>
        <time>2018-06-14T08:16:58Z</time>
      </trkpt>
      <trkpt lat="45.70543" lon="5.75664">
        <ele>228</ele>
        <time>2018-06-14T08:17:58Z</time>
      </trkpt>
      <trkpt lat="45.70551" lon="5.75645">
        <ele>228</ele>
        <time>2018-06-14T08:18:58Z</time>
      </trkpt>
      <trkpt lat="45.70563" lon="5.75625">
        <ele>228</ele>
        <time>2018-06-14T08:19:58Z</time>
      </trkpt>
      <trkpt lat="45.70563" lon="5.75611">
        <ele>228</ele>
        <time>2018-06-14T08:20:58Z</time>
      </trkpt>
      <trkpt lat="45.70571" lon="5.75601">
        <ele>228</ele>
        <time>2018-06-14T08:21:58Z</time>
      </trkpt>
      <trkpt lat="45.70581" lon="5.75585">
        <ele>228</ele>
        <time>2018-06-14T08:22:58Z</time>
      </trkpt>
      <trkpt lat="45.70596" lon="5.75557">
        <ele>227</ele>
        <time>2018-06-14T08:23:58Z</time>
      </trkpt>
      <trkpt lat="45.70603" lon="5.75551">
        <ele>227</ele>
        <time>2018-06-14T08:24:58Z</time>
      </trkpt>
      <trkpt lat="45.70618" lon="5.7557">
        <ele>227</ele>
        <time>2018-06-14T08:25:58Z</time>
      </trkpt>
      <trkpt lat="45.7063" lon="5.75579">
        <ele>227</ele>
        <time>2018-06-14T08:26:58Z</time>
      </trkpt>
      <trkpt lat="45.70652" lon="5.75535">
        <ele>226</ele>
        <time>2018-06-14T08:27:58Z</time>
      </trkpt>
      <trkpt lat="45.7066" lon="5.75536">
        <ele>226</ele>
        <time>2018-06-14T08:28:58Z</time>
      </trkpt>
      <trkpt lat="45.7067" lon="5.75554">
        <ele>224</ele>
        <time>2018-06-14T08:29:58Z</time>
      </trkpt>
      <trkpt lat="45.7068" lon="5.75574">
        <ele>225</ele>
        <time>2018-06-14T08:30:58Z</time>
      </trkpt>
      <trkpt lat="45.70716" lon="5.75619">
        <ele>225</ele>
        <time>2018-06-14T08:31:58Z</time>
      </trkpt>
      <trkpt lat="45.70727" lon="5.75636">
        <ele>225</ele>
        <time>2018-06-14T08:32:58Z</time>
      </trkpt>
      <trkpt lat="45.70741" lon="5.75652">
        <ele>225</ele>
        <time>2018-06-14T08:33:58Z</time>
      </trkpt>
      <trkpt lat="45.7076" lon="5.7567">
        <ele>226</ele>
        <time>2018-06-14T08:34:58Z</time>
      </trkpt>
      <trkpt lat="45.70791" lon="5.75692">
        <ele>225</ele>
        <time>2018-06-14T08:35:58Z</time>
      </trkpt>
      <trkpt lat="45.7081" lon="5.75704">
        <ele>225</ele>
        <time>2018-06-14T08:36:58Z</time>
      </trkpt>
      <trkpt lat="45.70827" lon="5.75718">
        <ele>224</ele>
        <time>2018-06-14T08:37:58Z</time>
      </trkpt>
      <trkpt lat="45.70842" lon="5.75728">
        <ele>224</ele>
        <time>2018-06-14T08:38:58Z</time>
      </trkpt>
      <trkpt lat="45.70858" lon="5.75743">
        <ele>224</ele>
        <time>2018-06-14T08:39:58Z</time>
      </trkpt>
      <trkpt lat="45.70879" lon="5.75748">
        <ele>225</ele>
        <time>2018-06-14T08:40:58Z</time>
      </trkpt>
      <trkpt lat="45.70897" lon="5.75756">
        <ele>225</ele>
        <time>2018-06-14T08:41:58Z</time>
      </trkpt>
      <trkpt lat="45.70913" lon="5.75765">
        <ele>225</ele>
        <time>2018-06-14T08:42:58Z</time>
      </trkpt>
      <trkpt lat="45.70933" lon="5.75774">
        <ele>226</ele>
        <time>2018-06-14T08:43:58Z</time>
      </trkpt>
      <trkpt lat="45.70957" lon="5.75791">
        <ele>226</ele>
        <time>2018-06-14T08:44:58Z</time>
      </trkpt>
      <trkpt lat="45.70976" lon="5.75805">
        <ele>226</ele>
        <time>2018-06-14T08:45:58Z</time>
      </trkpt>
      <trkpt lat="45.71002" lon="5.75832">
        <ele>227</ele>
        <time>2018-06-14T08:46:58Z</time>
      </trkpt>
      <trkpt lat="45.71023" lon="5.75855">
        <ele>228</ele>
        <time>2018-06-14T08:47:58Z</time>
      </trkpt>
      <trkpt lat="45.71062" lon="5.75894">
        <ele>229</ele>
        <time>2018-06-14T08:48:58Z</time>
      </trkpt>
      <trkpt lat="45.71082" lon="5.75913">
        <ele>231</ele>
        <time>2018-06-14T08:49:58Z</time>
      </trkpt>
      <trkpt lat="45.71122" lon="5.75954">
        <ele>229</ele>
        <time>2018-06-14T08:50:58Z</time>
      </trkpt>
      <trkpt lat="45.7114" lon="5.75972">
        <ele>228</ele>
        <time>2018-06-14T08:51:58Z</time>
      </trkpt>
      <trkpt lat="45.71158" lon="5.75983">
        <ele>228</ele>
        <time>2018-06-14T08:52:58Z</time>
      </trkpt>
      <trkpt lat="45.71172" lon="5.75992">
        <ele>228</ele>
        <time>2018-06-14T08:53:58Z</time>
      </trkpt>
      <trkpt lat="45.71186" lon="5.76002">
        <ele>227</ele>
        <time>2018-06-14T08:54:58Z</time>
      </trkpt>
      <trkpt lat="45.71204" lon="5.7601">
        <ele>227</ele>
        <time>2018-06-14T08:55:58Z</time>
      </trkpt>
      <trkpt lat="45.71223" lon="5.76015">
        <ele>227</ele>
        <time>2018-06-14T08:56:58Z</time>
      </trkpt>
      <trkpt lat="45.71243" lon="5.76018">
        <ele>227</ele>
        <time>2018-06-14T08:57:58Z</time>
      </trkpt>
      <trkpt lat="45.71263" lon="5.76019">
        <ele>227</ele>
        <time>2018-06-14T08:58:58Z</time>
      </trkpt>
      <trkpt lat="45.71281" lon="5.76022">
        <ele>227</ele>
        <time>2018-06-14T08:59:58Z</time>
      </trkpt>
      <trkpt lat="45.71299" lon="5.76022">
        <ele>227</ele>
        <time>2018-06-14T09:00:58Z</time>
      </trkpt>
      <trkpt lat="45.71322" lon="5.76023">
        <ele>227</ele>
        <time>2018-06-14T09:01:58Z</time>
      </trkpt>
      <trkpt lat="45.71337" lon="5.76027">
        <ele>227</ele>
        <time>2018-06-14T09:02:58Z</time>
      </trkpt>
      <trkpt lat="45.71358" lon="5.76037">
        <ele>227</ele>
        <time>2018-06-14T09:03:58Z</time>
      </trkpt>
      <trkpt lat="45.71378" lon="5.76045">
        <ele>227</ele>
        <time>2018-06-14T09:04:58Z</time>
      </trkpt>
      <trkpt lat="45.71411" lon="5.76066">
        <ele>228</ele>
        <time>2018-06-14T09:05:58Z</time>
      </trkpt>
      <trkpt lat="45.7143" lon="5.76077">
        <ele>227</ele>
        <time>2018-06-14T09:06:58Z</time>
      </trkpt>
      <trkpt lat="45.71452" lon="5.76093">
        <ele>229</ele>
        <time>2018-06-14T09:07:58Z</time>
      </trkpt>
      <trkpt lat="45.71473" lon="5.76111">
        <ele>228</ele>
        <time>2018-06-14T09:08:58Z</time>
      </trkpt>
      <trkpt lat="45.71493" lon="5.76127">
        <ele>228</ele>
        <time>2018-06-14T09:09:58Z</time>
      </trkpt>
      <trkpt lat="45.71507" lon="5.7614">
        <ele>227</ele>
        <time>2018-06-14T09:10:58Z</time>
      </trkpt>
      <trkpt lat="45.71523" lon="5.76155">
        <ele>227</ele>
        <time>2018-06-14T09:11:58Z</time>
      </trkpt>
      <trkpt lat="45.7155" lon="5.76185">
        <ele>228</ele>
        <time>2018-06-14T09:12:58Z</time>
      </trkpt>
      <trkpt lat="45.71563" lon="5.76197">
        <ele>227</ele>
        <time>2018-06-14T09:13:58Z</time>
      </trkpt>
      <trkpt lat="45.71576" lon="5.76213">
        <ele>228</ele>
        <time>2018-06-14T09:14:58Z</time>
      </trkpt>
      <trkpt lat="45.71591" lon="5.76229">
        <ele>228</ele>
        <time>2018-06-14T09:15:58Z</time>
      </trkpt>
      <trkpt lat="45.71602" lon="5.76237">
        <ele>228</ele>
        <time>2018-06-14T09:16:58Z</time>
      </trkpt>
      <trkpt lat="45.71613" lon="5.76247">
        <ele>228</ele>
        <time>2018-06-14T09:17:58Z</time>
      </trkpt>
      <trkpt lat="45.71636" lon="5.76259">
        <ele>228</ele>
        <time>2018-06-14T09:18:58Z</time>
      </trkpt>
      <trkpt lat="45.71646" lon="5.7627">
        <ele>228</ele>
        <time>2018-06-14T09:19:58Z</time>
      </trkpt>
      <trkpt lat="45.71658" lon="5.76289">
        <ele>228</ele>
        <time>2018-06-14T09:20:58Z</time>
      </trkpt>
      <trkpt lat="45.7167" lon="5.76306">
        <ele>228</ele>
        <time>2018-06-14T09:21:58Z</time>
      </trkpt>
      <trkpt lat="45.7169" lon="5.7634">
        <ele>227</ele>
        <time>2018-06-14T09:22:58Z</time>
      </trkpt>
      <trkpt lat="45.71703" lon="5.76365">
        <ele>227</ele>
        <time>2018-06-14T09:23:58Z</time>
      </trkpt>
      <trkpt lat="45.71716" lon="5.76394">
        <ele>228</ele>
        <time>2018-06-14T09:24:58Z</time>
      </trkpt>
      <trkpt lat="45.71742" lon="5.7646">
        <ele>228</ele>
        <time>2018-06-14T09:25:58Z</time>
      </trkpt>
      <trkpt lat="45.71753" lon="5.76486">
        <ele>229</ele>
        <time>2018-06-14T09:26:58Z</time>
      </trkpt>
      <trkpt lat="45.71763" lon="5.76509">
        <ele>229</ele>
        <time>2018-06-14T09:27:58Z</time>
      </trkpt>
      <trkpt lat="45.71775" lon="5.76533">
        <ele>229</ele>
        <time>2018-06-14T09:28:58Z</time>
      </trkpt>
      <trkpt lat="45.71783" lon="5.76554">
        <ele>229</ele>
        <time>2018-06-14T09:29:58Z</time>
      </trkpt>
      <trkpt lat="45.71794" lon="5.7657">
        <ele>229</ele>
        <time>2018-06-14T09:30:58Z</time>
      </trkpt>
      <trkpt lat="45.71806" lon="5.76584">
        <ele>229</ele>
        <time>2018-06-14T09:31:58Z</time>
      </trkpt>
      <trkpt lat="45.71823" lon="5.76592">
        <ele>230</ele>
        <time>2018-06-14T09:32:58Z</time>
      </trkpt>
      <trkpt lat="45.71841" lon="5.76599">
        <ele>231</ele>
        <time>2018-06-14T09:33:58Z</time>
      </trkpt>
      <trkpt lat="45.71864" lon="5.76604">
        <ele>231</ele>
        <time>2018-06-14T09:34:58Z</time>
      </trkpt>
      <trkpt lat="45.71889" lon="5.76609">
        <ele>231</ele>
        <time>2018-06-14T09:35:58Z</time>
      </trkpt>
      <trkpt lat="45.71911" lon="5.76616">
        <ele>231</ele>
        <time>2018-06-14T09:36:58Z</time>
      </trkpt>
      <trkpt lat="45.71922" lon="5.76623">
        <ele>231</ele>
        <time>2018-06-14T09:37:58Z</time>
      </trkpt>
      <trkpt lat="45.71938" lon="5.76636">
        <ele>231</ele>
        <time>2018-06-14T09:38:58Z</time>
      </trkpt>
      <trkpt lat="45.71953" lon="5.76656">
        <ele>231</ele>
        <time>2018-06-14T09:39:58Z</time>
      </trkpt>
      <trkpt lat="45.71963" lon="5.76667">
        <ele>232</ele>
        <time>2018-06-14T09:40:58Z</time>
      </trkpt>
      <trkpt lat="45.71974" lon="5.76673">
        <ele>232</ele>
        <time>2018-06-14T09:41:58Z</time>
      </trkpt>
      <trkpt lat="45.71989" lon="5.76695">
        <ele>233</ele>
        <time>2018-06-14T09:42:58Z</time>
      </trkpt>
      <trkpt lat="45.72004" lon="5.7672">
        <ele>231</ele>
        <time>2018-06-14T09:43:58Z</time>
      </trkpt>
      <trkpt lat="45.72016" lon="5.76736">
        <ele>231</ele>
        <time>2018-06-14T09:44:58Z</time>
      </trkpt>
      <trkpt lat="45.72024" lon="5.76745">
        <ele>231</ele>
        <time>2018-06-14T09:45:58Z</time>
      </trkpt>
      <trkpt lat="45.7203" lon="5.76765">
        <ele>231</ele>
        <time>2018-06-14T09:46:58Z</time>
      </trkpt>
      <trkpt lat="45.72044" lon="5.76777">
        <ele>230</ele>
        <time>2018-06-14T09:47:58Z</time>
      </trkpt>
      <trkpt lat="45.72055" lon="5.76797">
        <ele>230</ele>
        <time>2018-06-14T09:48:58Z</time>
      </trkpt>
      <trkpt lat="45.72094" lon="5.76849">
        <ele>225</ele>
        <time>2018-06-14T09:49:58Z</time>
      </trkpt>
      <trkpt lat="45.72115" lon="5.76874">
        <ele>225</ele>
        <time>2018-06-14T09:50:58Z</time>
      </trkpt>
      <trkpt lat="45.72129" lon="5.76904">
        <ele>225</ele>
        <time>2018-06-14T09:51:58Z</time>
      </trkpt>
      <trkpt lat="45.72138" lon="5.76934">
        <ele>226</ele>
        <time>2018-06-14T09:52:58Z</time>
      </trkpt>
      <trkpt lat="45.72141" lon="5.76948">
        <ele>226</ele>
        <time>2018-06-14T09:53:58Z</time>
      </trkpt>
      <trkpt lat="45.72145" lon="5.76967">
        <ele>226</ele>
        <time>2018-06-14T09:54:58Z</time>
      </trkpt>
      <trkpt lat="45.72157" lon="5.76997">
        <ele>227</ele>
        <time>2018-06-14T09:55:58Z</time>
      </trkpt>
      <trkpt lat="45.72166" lon="5.77016">
        <ele>227</ele>
        <time>2018-06-14T09:56:58Z</time>
      </trkpt>
      <trkpt lat="45.72178" lon="5.77042">
        <ele>227</ele>
        <time>2018-06-14T09:57:58Z</time>
      </trkpt>
      <trkpt lat="45.72182" lon="5.77066">
        <ele>227</ele>
        <time>2018-06-14T09:58:58Z</time>
      </trkpt>
      <trkpt lat="45.72188" lon="5.77089">
        <ele>228</ele>
        <time>2018-06-14T09:59:58Z</time>
      </trkpt>
      <trkpt lat="45.72196" lon="5.77111">
        <ele>228</ele>
        <time>2018-06-14T10:00:58Z</time>
      </trkpt>
      <trkpt lat="45.72209" lon="5.77138">
        <ele>228</ele>
        <time>2018-06-14T10:01:58Z</time>
      </trkpt>
      <trkpt lat="45.7222" lon="5.77165">
        <ele>228</ele>
        <time>2018-06-14T10:02:58Z</time>
      </trkpt>
      <trkpt lat="45.72233" lon="5.77197">
        <ele>228</ele>
        <time>2018-06-14T10:03:58Z</time>
      </trkpt>
      <trkpt lat="45.72246" lon="5.77226">
        <ele>228</ele>
        <time>2018-06-14T10:04:58Z</time>
      </trkpt>
      <trkpt lat="45.72256" lon="5.7725">
        <ele>227</ele>
        <time>2018-06-14T10:05:58Z</time>
      </trkpt>
      <trkpt lat="45.72298" lon="5.77333">
        <ele>225</ele>
        <time>2018-06-14T10:06:58Z</time>
      </trkpt>
      <trkpt lat="45.72312" lon="5.77362">
        <ele>225</ele>
        <time>2018-06-14T10:07:58Z</time>
      </trkpt>
      <trkpt lat="45.7234" lon="5.77414">
        <ele>227</ele>
        <time>2018-06-14T10:08:58Z</time>
      </trkpt>
      <trkpt lat="45.72351" lon="5.77436">
        <ele>227</ele>
        <time>2018-06-14T10:09:58Z</time>
      </trkpt>
      <trkpt lat="45.72364" lon="5.77467">
        <ele>227</ele>
        <time>2018-06-14T10:10:58Z</time>
      </trkpt>
      <trkpt lat="45.72375" lon="5.77492">
        <ele>228</ele>
        <time>2018-06-14T10:11:58Z</time>
      </trkpt>
      <trkpt lat="45.72386" lon="5.7751">
        <ele>229</ele>
        <time>2018-06-14T10:12:58Z</time>
      </trkpt>
      <trkpt lat="45.72396" lon="5.77527">
        <ele>229</ele>
        <time>2018-06-14T10:13:58Z</time>
      </trkpt>
      <trkpt lat="45.72408" lon="5.77541">
        <ele>229</ele>
        <time>2018-06-14T10:14:58Z</time>
      </trkpt>
      <trkpt lat="45.72422" lon="5.77554">
        <ele>229</ele>
        <time>2018-06-14T10:15:58Z</time>
      </trkpt>
      <trkpt lat="45.72435" lon="5.77568">
        <ele>229</ele>
        <time>2018-06-14T10:16:58Z</time>
      </trkpt>
      <trkpt lat="45.72437" lon="5.77578">
        <ele>229</ele>
        <time>2018-06-14T10:17:58Z</time>
      </trkpt>
      <trkpt lat="45.72434" lon="5.77593">
        <ele>229</ele>
        <time>2018-06-14T10:18:58Z</time>
      </trkpt>
      <trkpt lat="45.72443" lon="5.77588">
        <ele>229</ele>
        <time>2018-06-14T10:19:58Z</time>
      </trkpt>
      <trkpt lat="45.72458" lon="5.77591">
        <ele>229</ele>
        <time>2018-06-14T10:20:58Z</time>
      </trkpt>
      <trkpt lat="45.72472" lon="5.776">
        <ele>229</ele>
        <time>2018-06-14T10:21:58Z</time>
      </trkpt>
      <trkpt lat="45.72487" lon="5.77605">
        <ele>229</ele>
        <time>2018-06-14T10:22:58Z</time>
      </trkpt>
      <trkpt lat="45.72514" lon="5.77624">
        <ele>227</ele>
        <time>2018-06-14T10:23:58Z</time>
      </trkpt>
      <trkpt lat="45.72537" lon="5.77642">
        <ele>227</ele>
        <time>2018-06-14T10:24:58Z</time>
      </trkpt>
      <trkpt lat="45.72563" lon="5.7766">
        <ele>226</ele>
        <time>2018-06-14T10:25:58Z</time>
      </trkpt>
      <trkpt lat="45.72592" lon="5.77681">
        <ele>225</ele>
        <time>2018-06-14T10:26:58Z</time>
      </trkpt>
      <trkpt lat="45.72621" lon="5.77707">
        <ele>225</ele>
        <time>2018-06-14T10:27:58Z</time>
      </trkpt>
      <trkpt lat="45.72646" lon="5.77726">
        <ele>225</ele>
        <time>2018-06-14T10:28:58Z</time>
      </trkpt>
      <trkpt lat="45.72665" lon="5.77734">
        <ele>225</ele>
        <time>2018-06-14T10:29:58Z</time>
      </trkpt>
      <trkpt lat="45.72696" lon="5.7774">
        <ele>225</ele>
        <time>2018-06-14T10:30:58Z</time>
      </trkpt>
      <trkpt lat="45.72725" lon="5.77745">
        <ele>225</ele>
        <time>2018-06-14T10:31:58Z</time>
      </trkpt>
      <trkpt lat="45.72758" lon="5.77747">
        <ele>225</ele>
        <time>2018-06-14T10:32:58Z</time>
      </trkpt>
      <trkpt lat="45.72782" lon="5.77751">
        <ele>226</ele>
        <time>2018-06-14T10:33:58Z</time>
      </trkpt>
      <trkpt lat="45.72797" lon="5.77759">
        <ele>226</ele>
        <time>2018-06-14T10:34:58Z</time>
      </trkpt>
      <trkpt lat="45.72808" lon="5.7776">
        <ele>227</ele>
        <time>2018-06-14T10:35:58Z</time>
      </trkpt>
      <trkpt lat="45.72829" lon="5.77747">
        <ele>227</ele>
        <time>2018-06-14T10:36:58Z</time>
      </trkpt>
      <trkpt lat="45.72851" lon="5.77734">
        <ele>226</ele>
        <time>2018-06-14T10:37:58Z</time>
      </trkpt>
      <trkpt lat="45.72874" lon="5.77726">
        <ele>226</ele>
        <time>2018-06-14T10:38:58Z</time>
      </trkpt>
      <trkpt lat="45.72902" lon="5.77716">
        <ele>225</ele>
        <time>2018-06-14T10:39:58Z</time>
      </trkpt>
      <trkpt lat="45.72933" lon="5.77708">
        <ele>225</ele>
        <time>2018-06-14T10:40:58Z</time>
      </trkpt>
      <trkpt lat="45.72956" lon="5.77702">
        <ele>225</ele>
        <time>2018-06-14T10:41:58Z</time>
      </trkpt>
      <trkpt lat="45.72993" lon="5.7768">
        <ele>224</ele>
        <time>2018-06-14T10:42:58Z</time>
      </trkpt>
      <trkpt lat="45.73013" lon="5.77666">
        <ele>224</ele>
        <time>2018-06-14T10:43:58Z</time>
      </trkpt>
      <trkpt lat="45.73028" lon="5.77658">
        <ele>224</ele>
        <time>2018-06-14T10:44:58Z</time>
      </trkpt>
      <trkpt lat="45.73049" lon="5.77645">
        <ele>225</ele>
        <time>2018-06-14T10:45:58Z</time>
      </trkpt>
      <trkpt lat="45.73069" lon="5.7764">
        <ele>225</ele>
        <time>2018-06-14T10:46:58Z</time>
      </trkpt>
      <trkpt lat="45.73089" lon="5.77631">
        <ele>226</ele>
        <time>2018-06-14T10:47:58Z</time>
      </trkpt>
      <trkpt lat="45.7311" lon="5.77617">
        <ele>225</ele>
        <time>2018-06-14T10:48:58Z</time>
      </trkpt>
      <trkpt lat="45.73173" lon="5.77579">
        <ele>225</ele>
        <time>2018-06-14T10:49:58Z</time>
      </trkpt>
      <trkpt lat="45.73194" lon="5.77567">
        <ele>226</ele>
        <time>2018-06-14T10:50:58Z</time>
      </trkpt>
      <trkpt lat="45.73213" lon="5.77551">
        <ele>226</ele>
        <time>2018-06-14T10:51:58Z</time>
      </trkpt>
      <trkpt lat="45.73234" lon="5.77529">
        <ele>226</ele>
        <time>2018-06-14T10:52:58Z</time>
      </trkpt>
      <trkpt lat="45.73254" lon="5.77511">
        <ele>226</ele>
        <time>2018-06-14T10:53:58Z</time>
      </trkpt>
      <trkpt lat="45.73297" lon="5.77488">
        <ele>226</ele>
        <time>2018-06-14T10:54:58Z</time>
      </trkpt>
      <trkpt lat="45.7331" lon="5.7748">
        <ele>226</ele>
        <time>2018-06-14T10:55:58Z</time>
      </trkpt>
      <trkpt lat="45.73324" lon="5.77466">
        <ele>226</ele>
        <time>2018-06-14T10:56:58Z</time>
      </trkpt>
      <trkpt lat="45.73342" lon="5.7745">
        <ele>226</ele>
        <time>2018-06-14T10:57:58Z</time>
      </trkpt>
      <trkpt lat="45.73365" lon="5.77433">
        <ele>226</ele>
        <time>2018-06-14T10:58:58Z</time>
      </trkpt>
      <trkpt lat="45.73388" lon="5.7742">
        <ele>226</ele>
        <time>2018-06-14T10:59:58Z</time>
      </trkpt>
      <trkpt lat="45.73406" lon="5.77409">
        <ele>227</ele>
        <time>2018-06-14T11:00:58Z</time>
      </trkpt>
      <trkpt lat="45.73428" lon="5.77399">
        <ele>227</ele>
        <time>2018-06-14T11:01:58Z</time>
      </trkpt>
      <trkpt lat="45.73452" lon="5.77387">
        <ele>227</ele>
        <time>2018-06-14T11:02:58Z</time>
      </trkpt>
      <trkpt lat="45.73478" lon="5.77378">
        <ele>227</ele>
        <time>2018-06-14T11:03:58Z</time>
      </trkpt>
      <trkpt lat="45.73497" lon="5.7737">
        <ele>227</ele>
        <time>2018-06-14T11:04:58Z</time>
      </trkpt>
      <trkpt lat="45.73514" lon="5.7736">
        <ele>226</ele>
        <time>2018-06-14T11:05:58Z</time>
      </trkpt>
      <trkpt lat="45.73537" lon="5.77351">
        <ele>226</ele>
        <time>2018-06-14T11:06:58Z</time>
      </trkpt>
      <trkpt lat="45.73561" lon="5.77342">
        <ele>226</ele>
        <time>2018-06-14T11:07:58Z</time>
      </trkpt>
      <trkpt lat="45.73588" lon="5.77334">
        <ele>225</ele>
        <time>2018-06-14T11:08:58Z</time>
      </trkpt>
      <trkpt lat="45.73611" lon="5.77322">
        <ele>227</ele>
        <time>2018-06-14T11:09:58Z</time>
      </trkpt>
      <trkpt lat="45.7363" lon="5.77318">
        <ele>227</ele>
        <time>2018-06-14T11:10:58Z</time>
      </trkpt>
      <trkpt lat="45.73652" lon="5.77311">
        <ele>228</ele>
        <time>2018-06-14T11:11:58Z</time>
      </trkpt>
      <trkpt lat="45.73672" lon="5.77307">
        <ele>228</ele>
        <time>2018-06-14T11:12:58Z</time>
      </trkpt>
      <trkpt lat="45.73696" lon="5.77301">
        <ele>228</ele>
        <time>2018-06-14T11:13:58Z</time>
      </trkpt>
      <trkpt lat="45.73743" lon="5.77259">
        <ele>228</ele>
        <time>2018-06-14T11:14:58Z</time>
      </trkpt>
      <trkpt lat="45.7376" lon="5.77245">
        <ele>228</ele>
        <time>2018-06-14T11:15:58Z</time>
      </trkpt>
      <trkpt lat="45.73779" lon="5.77232">
        <ele>227</ele>
        <time>2018-06-14T11:16:58Z</time>
      </trkpt>
      <trkpt lat="45.73798" lon="5.77223">
        <ele>227</ele>
        <time>2018-06-14T11:17:58Z</time>
      </trkpt>
      <trkpt lat="45.73815" lon="5.77212">
        <ele>227</ele>
        <time>2018-06-14T11:18:58Z</time>
      </trkpt>
      <trkpt lat="45.73826" lon="5.77204">
        <ele>227</ele>
        <time>2018-06-14T11:19:58Z</time>
      </trkpt>
      <trkpt lat="45.73839" lon="5.77189">
        <ele>227</ele>
        <time>2018-06-14T11:20:58Z</time>
      </trkpt>
      <trkpt lat="45.7385" lon="5.77176">
        <ele>227</ele>
        <time>2018-06-14T11:21:58Z</time>
      </trkpt>
      <trkpt lat="45.73859" lon="5.77171">
        <ele>227</ele>
        <time>2018-06-14T11:22:58Z</time>
      </trkpt>
      <trkpt lat="45.73874" lon="5.77171">
        <ele>226</ele>
        <time>2018-06-14T11:23:58Z</time>
      </trkpt>
      <trkpt lat="45.73886" lon="5.77172">
        <ele>226</ele>
        <time>2018-06-14T11:24:58Z</time>
      </trkpt>
      <trkpt lat="45.73898" lon="5.77176">
        <ele>226</ele>
        <time>2018-06-14T11:25:58Z</time>
      </trkpt>
      <trkpt lat="45.73907" lon="5.77183">
        <ele>225</ele>
        <time>2018-06-14T11:26:58Z</time>
      </trkpt>
      <trkpt lat="45.73919" lon="5.77194">
        <ele>226</ele>
        <time>2018-06-14T11:27:58Z</time>
      </trkpt>
      <trkpt lat="45.73933" lon="5.77206">
        <ele>226</ele>
        <time>2018-06-14T11:28:58Z</time>
      </trkpt>
      <trkpt lat="45.73945" lon="5.77222">
        <ele>227</ele>
        <time>2018-06-14T11:29:58Z</time>
      </trkpt>
      <trkpt lat="45.73962" lon="5.77239">
        <ele>227</ele>
        <time>2018-06-14T11:30:58Z</time>
      </trkpt>
      <trkpt lat="45.7398" lon="5.77258">
        <ele>229</ele>
        <time>2018-06-14T11:31:58Z</time>
      </trkpt>
      <trkpt lat="45.73999" lon="5.7728">
        <ele>230</ele>
        <time>2018-06-14T11:32:58Z</time>
      </trkpt>
      <trkpt lat="45.74009" lon="5.77293">
        <ele>230</ele>
        <time>2018-06-14T11:33:58Z</time>
      </trkpt>
      <trkpt lat="45.74037" lon="5.77313">
        <ele>230</ele>
        <time>2018-06-14T11:34:58Z</time>
      </trkpt>
      <trkpt lat="45.74061" lon="5.77342">
        <ele>232</ele>
        <time>2018-06-14T11:35:58Z</time>
      </trkpt>
      <trkpt lat="45.74074" lon="5.77359">
        <ele>232</ele>
        <time>2018-06-14T11:36:58Z</time>
      </trkpt>
      <trkpt lat="45.74089" lon="5.77374">
        <ele>231</ele>
        <time>2018-06-14T11:37:58Z</time>
      </trkpt>
      <trkpt lat="45.74101" lon="5.77387">
        <ele>231</ele>
        <time>2018-06-14T11:38:58Z</time>
      </trkpt>
      <trkpt lat="45.74124" lon="5.77418">
        <ele>233</ele>
        <time>2018-06-14T11:39:58Z</time>
      </trkpt>
      <trkpt lat="45.74139" lon="5.77432">
        <ele>232</ele>
        <time>2018-06-14T11:40:58Z</time>
      </trkpt>
      <trkpt lat="45.74157" lon="5.77465">
        <ele>233</ele>
        <time>2018-06-14T11:41:58Z</time>
      </trkpt>
      <trkpt lat="45.74184" lon="5.77568">
        <ele>230</ele>
        <time>2018-06-14T11:42:58Z</time>
      </trkpt>
      <trkpt lat="45.74191" lon="5.77594">
        <ele>230</ele>
        <time>2018-06-14T11:43:58Z</time>
      </trkpt>
      <trkpt lat="45.74196" lon="5.77628">
        <ele>230</ele>
        <time>2018-06-14T11:44:58Z</time>
      </trkpt>
      <trkpt lat="45.74202" lon="5.77655">
        <ele>230</ele>
        <time>2018-06-14T11:45:58Z</time>
      </trkpt>
      <trkpt lat="45.74212" lon="5.77688">
        <ele>230</ele>
        <time>2018-06-14T11:46:58Z</time>
      </trkpt>
      <trkpt lat="45.74216" lon="5.77723">
        <ele>229</ele>
        <time>2018-06-14T11:47:58Z</time>
      </trkpt>
      <trkpt lat="45.74216" lon="5.77759">
        <ele>229</ele>
        <time>2018-06-14T11:48:58Z</time>
      </trkpt>
      <trkpt lat="45.74213" lon="5.7779">
        <ele>229</ele>
        <time>2018-06-14T11:49:58Z</time>
      </trkpt>
      <trkpt lat="45.74209" lon="5.77849">
        <ele>230</ele>
        <time>2018-06-14T11:50:58Z</time>
      </trkpt>
      <trkpt lat="45.74206" lon="5.77883">
        <ele>230</ele>
        <time>2018-06-14T11:51:58Z</time>
      </trkpt>
      <trkpt lat="45.74202" lon="5.77899">
        <ele>231</ele>
        <time>2018-06-14T11:52:58Z</time>
      </trkpt>
      <trkpt lat="45.74194" lon="5.77939">
        <ele>231</ele>
        <time>2018-06-14T11:53:58Z</time>
      </trkpt>
      <trkpt lat="45.7419" lon="5.77955">
        <ele>230</ele>
        <time>2018-06-14T11:54:58Z</time>
      </trkpt>
      <trkpt lat="45.74192" lon="5.77979">
        <ele>230</ele>
        <time>2018-06-14T11:55:58Z</time>
      </trkpt>
      <trkpt lat="45.74197" lon="5.77994">
        <ele>230</ele>
        <time>2018-06-14T11:56:58Z</time>
      </trkpt>
      <trkpt lat="45.74179" lon="5.78002">
        <ele>229</ele>
        <time>2018-06-14T11:57:58Z</time>
      </trkpt>
      <trkpt lat="45.74172" lon="5.78016">
        <ele>229</ele>
        <time>2018-06-14T11:58:58Z</time>
      </trkpt>
      <trkpt lat="45.74169" lon="5.78036">
        <ele>229</ele>
        <time>2018-06-14T11:59:58Z</time>
      </trkpt>
      <trkpt lat="45.74173" lon="5.78054">
        <ele>229</ele>
        <time>2018-06-14T12:00:58Z</time>
      </trkpt>
      <trkpt lat="45.74172" lon="5.78074">
        <ele>229</ele>
        <time>2018-06-14T12:01:58Z</time>
      </trkpt>
      <trkpt lat="45.74159" lon="5.78087">
        <ele>230</ele>
        <time>2018-06-14T12:02:58Z</time>
      </trkpt>
      <trkpt lat="45.74143" lon="5.78097">
        <ele>231</ele>
        <time>2018-06-14T12:03:58Z</time>
      </trkpt>
      <trkpt lat="45.74132" lon="5.78113">
        <ele>231</ele>
        <time>2018-06-14T12:04:58Z</time>
      </trkpt>
      <trkpt lat="45.74122" lon="5.78135">
        <ele>231</ele>
        <time>2018-06-14T12:05:58Z</time>
      </trkpt>
      <trkpt lat="45.74111" lon="5.78168">
        <ele>232</ele>
        <time>2018-06-14T12:06:58Z</time>
      </trkpt>
      <trkpt lat="45.74105" lon="5.78183">
        <ele>232</ele>
        <time>2018-06-14T12:07:58Z</time>
      </trkpt>
      <trkpt lat="45.74102" lon="5.782">
        <ele>231</ele>
        <time>2018-06-14T12:08:58Z</time>
      </trkpt>
      <trkpt lat="45.74116" lon="5.78257">
        <ele>230</ele>
        <time>2018-06-14T12:09:58Z</time>
      </trkpt>
      <trkpt lat="45.74095" lon="5.78282">
        <ele>231</ele>
        <time>2018-06-14T12:10:58Z</time>
      </trkpt>
      <trkpt lat="45.74068" lon="5.78316">
        <ele>235</ele>
        <time>2018-06-14T12:11:58Z</time>
      </trkpt>
      <trkpt lat="45.74051" lon="5.78337">
        <ele>238</ele>
        <time>2018-06-14T12:12:58Z</time>
      </trkpt>
      <trkpt lat="45.7403" lon="5.78356">
        <ele>241</ele>
        <time>2018-06-14T12:13:58Z</time>
      </trkpt>
      <trkpt lat="45.74004" lon="5.78376">
        <ele>243</ele>
        <time>2018-06-14T12:14:58Z</time>
      </trkpt>
      <trkpt lat="45.74005" lon="5.78387">
        <ele>244</ele>
        <time>2018-06-14T12:15:58Z</time>
      </trkpt>
      <trkpt lat="45.74009" lon="5.78415">
        <ele>248</ele>
        <time>2018-06-14T12:16:58Z</time>
      </trkpt>
      <trkpt lat="45.74016" lon="5.78449">
        <ele>249</ele>
        <time>2018-06-14T12:17:58Z</time>
      </trkpt>
      <trkpt lat="45.74021" lon="5.78487">
        <ele>251</ele>
        <time>2018-06-14T12:18:58Z</time>
      </trkpt>
      <trkpt lat="45.74025" lon="5.78506">
        <ele>254</ele>
        <time>2018-06-14T12:19:58Z</time>
      </trkpt>
      <trkpt lat="45.74031" lon="5.78527">
        <ele>253</ele>
        <time>2018-06-14T12:20:58Z</time>
      </trkpt>
      <trkpt lat="45.74037" lon="5.78551">
        <ele>253</ele>
        <time>2018-06-14T12:21:58Z</time>
      </trkpt>
      <trkpt lat="45.74055" lon="5.78578">
        <ele>251</ele>
        <time>2018-06-14T12:22:58Z</time>
      </trkpt>
      <trkpt lat="45.74072" lon="5.78593">
        <ele>251</ele>
        <time>2018-06-14T12:23:58Z</time>
      </trkpt>
      <trkpt lat="45.74079" lon="5.78605">
        <ele>253</ele>
        <time>2018-06-14T12:24:58Z</time>
      </trkpt>
      <trkpt lat="45.74088" lon="5.78622">
        <ele>245</ele>
        <time>2018-06-14T12:25:58Z</time>
      </trkpt>
      <trkpt lat="45.74102" lon="5.78657">
        <ele>248</ele>
        <time>2018-06-14T12:26:58Z</time>
      </trkpt>
      <trkpt lat="45.74111" lon="5.78686">
        <ele>251</ele>
        <time>2018-06-14T12:27:58Z</time>
      </trkpt>
      <trkpt lat="45.74113" lon="5.78706">
        <ele>250</ele>
        <time>2018-06-14T12:28:58Z</time>
      </trkpt>
      <trkpt lat="45.74116" lon="5.78726">
        <ele>251</ele>
        <time>2018-06-14T12:29:58Z</time>
      </trkpt>
      <trkpt lat="45.74127" lon="5.78771">
        <ele>253</ele>
        <time>2018-06-14T12:30:58Z</time>
      </trkpt>
      <trkpt lat="45.74135" lon="5.78801">
        <ele>253</ele>
        <time>2018-06-14T12:31:58Z</time>
      </trkpt>
      <trkpt lat="45.7416" lon="5.7891">
        <ele>258</ele>
        <time>2018-06-14T12:32:58Z</time>
      </trkpt>
      <trkpt lat="45.74166" lon="5.78925">
        <ele>259</ele>
        <time>2018-06-14T12:33:58Z</time>
      </trkpt>
      <trkpt lat="45.7417" lon="5.78974">
        <ele>255</ele>
        <time>2018-06-14T12:34:58Z</time>
      </trkpt>
      <trkpt lat="45.74173" lon="5.7899">
        <ele>257</ele>
        <time>2018-06-14T12:35:58Z</time>
      </trkpt>
      <trkpt lat="45.74185" lon="5.79003">
        <ele>257</ele>
        <time>2018-06-14T12:36:58Z</time>
      </trkpt>
      <trkpt lat="45.74197" lon="5.7902">
        <ele>256</ele>
        <time>2018-06-14T12:37:58Z</time>
      </trkpt>
      <trkpt lat="45.74212" lon="5.7905">
        <ele>255</ele>
        <time>2018-06-14T12:38:58Z</time>
      </trkpt>
      <trkpt lat="45.74224" lon="5.79067">
        <ele>254</ele>
        <time>2018-06-14T12:39:58Z</time>
      </trkpt>
      <trkpt lat="45.74236" lon="5.79079">
        <ele>254</ele>
        <time>2018-06-14T12:40:58Z</time>
      </trkpt>
      <trkpt lat="45.74265" lon="5.79099">
        <ele>251</ele>
        <time>2018-06-14T12:41:58Z</time>
      </trkpt>
      <trkpt lat="45.74277" lon="5.79112">
        <ele>250</ele>
        <time>2018-06-14T12:42:58Z</time>
      </trkpt>
      <trkpt lat="45.74286" lon="5.79125">
        <ele>250</ele>
        <time>2018-06-14T12:43:58Z</time>
      </trkpt>
      <trkpt lat="45.74294" lon="5.79154">
        <ele>250</ele>
        <time>2018-06-14T12:44:58Z</time>
      </trkpt>
      <trkpt lat="45.743" lon="5.79165">
        <ele>249</ele>
        <time>2018-06-14T12:45:58Z</time>
      </trkpt>
      <trkpt lat="45.7431" lon="5.79177">
        <ele>250</ele>
        <time>2018-06-14T12:46:58Z</time>
      </trkpt>
      <trkpt lat="45.74336" lon="5.79202">
        <ele>245</ele>
        <time>2018-06-14T12:47:58Z</time>
      </trkpt>
      <trkpt lat="45.74351" lon="5.79217">
        <ele>245</ele>
        <time>2018-06-14T12:48:58Z</time>
      </trkpt>
      <trkpt lat="45.7438" lon="5.79241">
        <ele>245</ele>
        <time>2018-06-14T12:49:58Z</time>
      </trkpt>
      <trkpt lat="45.74386" lon="5.79256">
        <ele>247</ele>
        <time>2018-06-14T12:50:58Z</time>
      </trkpt>
      <trkpt lat="45.74389" lon="5.79269">
        <ele>247</ele>
        <time>2018-06-14T12:51:58Z</time>
      </trkpt>
      <trkpt lat="45.74389" lon="5.79286">
        <ele>248</ele>
        <time>2018-06-14T12:52:58Z</time>
      </trkpt>
      <trkpt lat="45.74387" lon="5.79323">
        <ele>249</ele>
        <time>2018-06-14T12:53:58Z</time>
      </trkpt>
      <trkpt lat="45.74383" lon="5.79338">
        <ele>253</ele>
        <time>2018-06-14T12:54:58Z</time>
      </trkpt>
      <trkpt lat="45.74364" lon="5.79331">
        <ele>250</ele>
        <time>2018-06-14T12:55:58Z</time>
      </trkpt>
      <trkpt lat="45.74363" lon="5.79344">
        <ele>254</ele>
        <time>2018-06-14T12:56:58Z</time>
      </trkpt>
      <trkpt lat="45.74366" lon="5.79357">
        <ele>254</ele>
        <time>2018-06-14T12:57:58Z</time>
      </trkpt>
      <trkpt lat="45.74391" lon="5.79394">
        <ele>256</ele>
        <time>2018-06-14T12:58:58Z</time>
      </trkpt>
      <trkpt lat="45.74398" lon="5.79409">
        <ele>256</ele>
        <time>2018-06-14T12:59:58Z</time>
      </trkpt>
      <trkpt lat="45.74403" lon="5.79467">
        <ele>265</ele>
        <time>2018-06-14T13:00:58Z</time>
      </trkpt>
      <trkpt lat="45.74407" lon="5.79486">
        <ele>267</ele>
        <time>2018-06-14T13:01:58Z</time>
      </trkpt>
      <trkpt lat="45.74407" lon="5.79504">
        <ele>271</ele>
        <time>2018-06-14T13:02:58Z</time>
      </trkpt>
      <trkpt lat="45.74404" lon="5.79519">
        <ele>273</ele>
        <time>2018-06-14T13:03:58Z</time>
      </trkpt>
      <trkpt lat="45.74397" lon="5.79536">
        <ele>275</ele>
        <time>2018-06-14T13:04:58Z</time>
      </trkpt>
      <trkpt lat="45.74391" lon="5.79545">
        <ele>276</ele>
        <time>2018-06-14T13:05:58Z</time>
      </trkpt>
      <trkpt lat="45.74377" lon="5.79556">
        <ele>276</ele>
        <time>2018-06-14T13:06:58Z</time>
      </trkpt>
      <trkpt lat="45.74368" lon="5.7956">
        <ele>276</ele>
        <time>2018-06-14T13:07:58Z</time>
      </trkpt>
      <trkpt lat="45.74355" lon="5.79568">
        <ele>276</ele>
        <time>2018-06-14T13:08:58Z</time>
      </trkpt>
      <trkpt lat="45.74343" lon="5.79575">
        <ele>276</ele>
        <time>2018-06-14T13:09:58Z</time>
      </trkpt>
      <trkpt lat="45.74328" lon="5.79589">
        <ele>279</ele>
        <time>2018-06-14T13:10:58Z</time>
      </trkpt>
      <trkpt lat="45.74319" lon="5.79596">
        <ele>281</ele>
        <time>2018-06-14T13:11:58Z</time>
      </trkpt>
      <trkpt lat="45.74308" lon="5.79604">
        <ele>282</ele>
        <time>2018-06-14T13:12:58Z</time>
      </trkpt>
      <trkpt lat="45.74297" lon="5.79609">
        <ele>283</ele>
        <time>2018-06-14T13:13:58Z</time>
      </trkpt>
      <trkpt lat="45.74302" lon="5.7962">
        <ele>284</ele>
        <time>2018-06-14T13:14:58Z</time>
      </trkpt>
      <trkpt lat="45.74311" lon="5.79623">
        <ele>284</ele>
        <time>2018-06-14T13:15:58Z</time>
      </trkpt>
      <trkpt lat="45.74322" lon="5.79624">
        <ele>284</ele>
        <time>2018-06-14T13:16:58Z</time>
      </trkpt>
      <trkpt lat="45.74331" lon="5.79622">
        <ele>284</ele>
        <time>2018-06-14T13:17:58Z</time>
      </trkpt>
      <trkpt lat="45.74342" lon="5.79621">
        <ele>289</ele>
        <time>2018-06-14T13:18:58Z</time>
      </trkpt>
      <trkpt lat="45.74351" lon="5.79617">
        <ele>289</ele>
        <time>2018-06-14T13:19:58Z</time>
      </trkpt>
      <trkpt lat="45.74359" lon="5.79613">
        <ele>289</ele>
        <time>2018-06-14T13:20:58Z</time>
      </trkpt>
      <trkpt lat="45.74369" lon="5.79603">
        <ele>289</ele>
        <time>2018-06-14T13:21:58Z</time>
      </trkpt>
      <trkpt lat="45.7438" lon="5.79596">
        <ele>289</ele>
        <time>2018-06-14T13:22:58Z</time>
      </trkpt>
      <trkpt lat="45.74408" lon="5.79587">
        <ele>288</ele>
        <time>2018-06-14T13:23:58Z</time>
      </trkpt>
      <trkpt lat="45.7442" lon="5.79584">
        <ele>288</ele>
        <time>2018-06-14T13:24:58Z</time>
      </trkpt>
      <trkpt lat="45.7443" lon="5.79577">
        <ele>284</ele>
        <time>2018-06-14T13:25:58Z</time>
      </trkpt>
      <trkpt lat="45.74439" lon="5.79565">
        <ele>283</ele>
        <time>2018-06-14T13:26:58Z</time>
      </trkpt>
      <trkpt lat="45.74451" lon="5.79557">
        <ele>282</ele>
        <time>2018-06-14T13:27:58Z</time>
      </trkpt>
      <trkpt lat="45.74463" lon="5.79555">
        <ele>282</ele>
        <time>2018-06-14T13:28:58Z</time>
      </trkpt>
      <trkpt lat="45.74475" lon="5.79551">
        <ele>283</ele>
        <time>2018-06-14T13:29:58Z</time>
      </trkpt>
      <trkpt lat="45.74492" lon="5.79545">
        <ele>282</ele>
        <time>2018-06-14T13:30:58Z</time>
      </trkpt>
      <trkpt lat="45.74513" lon="5.79533">
        <ele>284</ele>
        <time>2018-06-14T13:31:58Z</time>
      </trkpt>
      <trkpt lat="45.74537" lon="5.79522">
        <ele>284</ele>
        <time>2018-06-14T13:32:58Z</time>
      </trkpt>
      <trkpt lat="45.74567" lon="5.79512">
        <ele>283</ele>
        <time>2018-06-14T13:33:58Z</time>
      </trkpt>
      <trkpt lat="45.74586" lon="5.79506">
        <ele>283</ele>
        <time>2018-06-14T13:34:58Z</time>
      </trkpt>
      <trkpt lat="45.74602" lon="5.79498">
        <ele>279</ele>
        <time>2018-06-14T13:35:58Z</time>
      </trkpt>
      <trkpt lat="45.74643" lon="5.79472">
        <ele>278</ele>
        <time>2018-06-14T13:36:58Z</time>
      </trkpt>
      <trkpt lat="45.74654" lon="5.79463">
        <ele>277</ele>
        <time>2018-06-14T13:37:58Z</time>
      </trkpt>
      <trkpt lat="45.74665" lon="5.79459">
        <ele>277</ele>
        <time>2018-06-14T13:38:58Z</time>
      </trkpt>
      <trkpt lat="45.74677" lon="5.79456">
        <ele>280</ele>
        <time>2018-06-14T13:39:58Z</time>
      </trkpt>
      <trkpt lat="45.74686" lon="5.79448">
        <ele>280</ele>
        <time>2018-06-14T13:40:58Z</time>
      </trkpt>
      <trkpt lat="45.74706" lon="5.79446">
        <ele>281</ele>
        <time>2018-06-14T13:41:58Z</time>
      </trkpt>
      <trkpt lat="45.74726" lon="5.79445">
        <ele>282</ele>
        <time>2018-06-14T13:42:58Z</time>
      </trkpt>
      <trkpt lat="45.74751" lon="5.79454">
        <ele>289</ele>
        <time>2018-06-14T13:43:58Z</time>
      </trkpt>
      <trkpt lat="45.74763" lon="5.79454">
        <ele>290</ele>
        <time>2018-06-14T13:44:58Z</time>
      </trkpt>
      <trkpt lat="45.74774" lon="5.79447">
        <ele>290</ele>
        <time>2018-06-14T13:45:58Z</time>
      </trkpt>
      <trkpt lat="45.74788" lon="5.79435">
        <ele>291</ele>
        <time>2018-06-14T13:46:58Z</time>
      </trkpt>
      <trkpt lat="45.74803" lon="5.79422">
        <ele>292</ele>
        <time>2018-06-14T13:47:58Z</time>
      </trkpt>
      <trkpt lat="45.7482" lon="5.7941">
        <ele>290</ele>
        <time>2018-06-14T13:48:58Z</time>
      </trkpt>
      <trkpt lat="45.74832" lon="5.79401">
        <ele>290</ele>
        <time>2018-06-14T13:49:58Z</time>
      </trkpt>
      <trkpt lat="45.7485" lon="5.79395">
        <ele>298</ele>
        <time>2018-06-14T13:50:58Z</time>
      </trkpt>
      <trkpt lat="45.74859" lon="5.7939">
        <ele>299</ele>
        <time>2018-06-14T13:51:58Z</time>
      </trkpt>
      <trkpt lat="45.74874" lon="5.79373">
        <ele>300</ele>
        <time>2018-06-14T13:52:58Z</time>
      </trkpt>
      <trkpt lat="45.7489" lon="5.79358">
        <ele>301</ele>
        <time>2018-06-14T13:53:58Z</time>
      </trkpt>
      <trkpt lat="45.74881" lon="5.79331">
        <ele>292</ele>
        <time>2018-06-14T13:54:58Z</time>
      </trkpt>
      <trkpt lat="45.74881" lon="5.7932">
        <ele>291</ele>
        <time>2018-06-14T13:55:58Z</time>
      </trkpt>
      <trkpt lat="45.74903" lon="5.7932">
        <ele>294</ele>
        <time>2018-06-14T13:56:58Z</time>
      </trkpt>
      <trkpt lat="45.74922" lon="5.79316">
        <ele>299</ele>
        <time>2018-06-14T13:57:58Z</time>
      </trkpt>
      <trkpt lat="45.74945" lon="5.79319">
        <ele>299</ele>
        <time>2018-06-14T13:58:58Z</time>
      </trkpt>
      <trkpt lat="45.74961" lon="5.79317">
        <ele>300</ele>
        <time>2018-06-14T13:59:58Z</time>
      </trkpt>
      <trkpt lat="45.74977" lon="5.79314">
        <ele>301</ele>
        <time>2018-06-14T14:00:58Z</time>
      </trkpt>
      <trkpt lat="45.74993" lon="5.79307">
        <ele>301</ele>
        <time>2018-06-14T14:01:58Z</time>
      </trkpt>
      <trkpt lat="45.75009" lon="5.79302">
        <ele>306</ele>
        <time>2018-06-14T14:02:58Z</time>
      </trkpt>
      <trkpt lat="45.75027" lon="5.79302">
        <ele>307</ele>
        <time>2018-06-14T14:03:58Z</time>
      </trkpt>
      <trkpt lat="45.75048" lon="5.79306">
        <ele>308</ele>
        <time>2018-06-14T14:04:58Z</time>
      </trkpt>
      <trkpt lat="45.75077" lon="5.79313">
        <ele>309</ele>
        <time>2018-06-14T14:05:58Z</time>
      </trkpt>
      <trkpt lat="45.75095" lon="5.79315">
        <ele>311</ele>
        <time>2018-06-14T14:06:58Z</time>
      </trkpt>
      <trkpt lat="45.75117" lon="5.79318">
        <ele>311</ele>
        <time>2018-06-14T14:07:58Z</time>
      </trkpt>
      <trkpt lat="45.75133" lon="5.79323">
        <ele>311</ele>
        <time>2018-06-14T14:08:58Z</time>
      </trkpt>
      <trkpt lat="45.75147" lon="5.79341">
        <ele>314</ele>
        <time>2018-06-14T14:09:58Z</time>
      </trkpt>
      <trkpt lat="45.75162" lon="5.79359">
        <ele>315</ele>
        <time>2018-06-14T14:10:58Z</time>
      </trkpt>
      <trkpt lat="45.75178" lon="5.79373">
        <ele>312</ele>
        <time>2018-06-14T14:11:58Z</time>
      </trkpt>
      <trkpt lat="45.75191" lon="5.79386">
        <ele>313</ele>
        <time>2018-06-14T14:12:58Z</time>
      </trkpt>
      <trkpt lat="45.75208" lon="5.79399">
        <ele>312</ele>
        <time>2018-06-14T14:13:58Z</time>
      </trkpt>
      <trkpt lat="45.75221" lon="5.79412">
        <ele>312</ele>
        <time>2018-06-14T14:14:58Z</time>
      </trkpt>
      <trkpt lat="45.75238" lon="5.79419">
        <ele>318</ele>
        <time>2018-06-14T14:15:58Z</time>
      </trkpt>
      <trkpt lat="45.75263" lon="5.79426">
        <ele>319</ele>
        <time>2018-06-14T14:16:58Z</time>
      </trkpt>
      <trkpt lat="45.75293" lon="5.79431">
        <ele>323</ele>
        <time>2018-06-14T14:17:58Z</time>
      </trkpt>
      <trkpt lat="45.75313" lon="5.79441">
        <ele>324</ele>
        <time>2018-06-14T14:18:58Z</time>
      </trkpt>
      <trkpt lat="45.75336" lon="5.79447">
        <ele>324</ele>
        <time>2018-06-14T14:19:58Z</time>
      </trkpt>
      <trkpt lat="45.75354" lon="5.79453">
        <ele>326</ele>
        <time>2018-06-14T14:20:58Z</time>
      </trkpt>
      <trkpt lat="45.75372" lon="5.79459">
        <ele>326</ele>
        <time>2018-06-14T14:21:58Z</time>
      </trkpt>
      <trkpt lat="45.75389" lon="5.79464">
        <ele>327</ele>
        <time>2018-06-14T14:22:58Z</time>
      </trkpt>
      <trkpt lat="45.75405" lon="5.79469">
        <ele>327</ele>
        <time>2018-06-14T14:23:58Z</time>
      </trkpt>
      <trkpt lat="45.75417" lon="5.79475">
        <ele>326</ele>
        <time>2018-06-14T14:24:58Z</time>
      </trkpt>
      <trkpt lat="45.75423" lon="5.79482">
        <ele>328</ele>
        <time>2018-06-14T14:25:58Z</time>
      </trkpt>
      <trkpt lat="45.754" lon="5.79478">
        <ele>329</ele>
        <time>2018-06-14T14:26:58Z</time>
      </trkpt>
      <trkpt lat="45.75388" lon="5.79478">
        <ele>329</ele>
        <time>2018-06-14T14:27:58Z</time>
      </trkpt>
      <trkpt lat="45.75367" lon="5.79481">
        <ele>329</ele>
        <time>2018-06-14T14:28:58Z</time>
      </trkpt>
      <trkpt lat="45.75345" lon="5.79482">
        <ele>332</ele>
        <time>2018-06-14T14:29:58Z</time>
      </trkpt>
      <trkpt lat="45.75321" lon="5.79483">
        <ele>332</ele>
        <time>2018-06-14T14:30:58Z</time>
      </trkpt>
      <trkpt lat="45.75308" lon="5.79484">
        <ele>331</ele>
        <time>2018-06-14T14:31:58Z</time>
      </trkpt>
      <trkpt lat="45.75295" lon="5.79485">
        <ele>330</ele>
        <time>2018-06-14T14:32:58Z</time>
      </trkpt>
      <trkpt lat="45.7528" lon="5.79489">
        <ele>331</ele>
        <time>2018-06-14T14:33:58Z</time>
      </trkpt>
      <trkpt lat="45.75268" lon="5.79493">
        <ele>332</ele>
        <time>2018-06-14T14:34:58Z</time>
      </trkpt>
      <trkpt lat="45.75258" lon="5.79499">
        <ele>335</ele>
        <time>2018-06-14T14:35:58Z</time>
      </trkpt>
      <trkpt lat="45.7524" lon="5.79512">
        <ele>342</ele>
        <time>2018-06-14T14:36:58Z</time>
      </trkpt>
      <trkpt lat="45.75234" lon="5.79523">
        <ele>343</ele>
        <time>2018-06-14T14:37:58Z</time>
      </trkpt>
      <trkpt lat="45.75222" lon="5.79534">
        <ele>345</ele>
        <time>2018-06-14T14:38:58Z</time>
      </trkpt>
      <trkpt lat="45.75205" lon="5.79549">
        <ele>346</ele>
        <time>2018-06-14T14:39:58Z</time>
      </trkpt>
      <trkpt lat="45.75186" lon="5.79564">
        <ele>347</ele>
        <time>2018-06-14T14:40:58Z</time>
      </trkpt>
      <trkpt lat="45.75172" lon="5.79574">
        <ele>348</ele>
        <time>2018-06-14T14:41:58Z</time>
      </trkpt>
      <trkpt lat="45.75153" lon="5.79588">
        <ele>352</ele>
        <time>2018-06-14T14:42:58Z</time>
      </trkpt>
      <trkpt lat="45.75136" lon="5.796">
        <ele>354</ele>
        <time>2018-06-14T14:43:58Z</time>
      </trkpt>
      <trkpt lat="45.75114" lon="5.79619">
        <ele>355</ele>
        <time>2018-06-14T14:44:58Z</time>
      </trkpt>
      <trkpt lat="45.75101" lon="5.79628">
        <ele>356</ele>
        <time>2018-06-14T14:45:58Z</time>
      </trkpt>
      <trkpt lat="45.75085" lon="5.79637">
        <ele>356</ele>
        <time>2018-06-14T14:46:58Z</time>
      </trkpt>
      <trkpt lat="45.75068" lon="5.79647">
        <ele>353</ele>
        <time>2018-06-14T14:47:58Z</time>
      </trkpt>
      <trkpt lat="45.75051" lon="5.79655">
        <ele>352</ele>
        <time>2018-06-14T14:48:58Z</time>
      </trkpt>
      <trkpt lat="45.75028" lon="5.79673">
        <ele>360</ele>
        <time>2018-06-14T14:49:58Z</time>
      </trkpt>
      <trkpt lat="45.75007" lon="5.7969">
        <ele>360</ele>
        <time>2018-06-14T14:50:58Z</time>
      </trkpt>
      <trkpt lat="45.74992" lon="5.79702">
        <ele>356</ele>
        <time>2018-06-14T14:51:58Z</time>
      </trkpt>
      <trkpt lat="45.74976" lon="5.79712">
        <ele>356</ele>
        <time>2018-06-14T14:52:58Z</time>
      </trkpt>
      <trkpt lat="45.74964" lon="5.79715">
        <ele>356</ele>
        <time>2018-06-14T14:53:58Z</time>
      </trkpt>
      <trkpt lat="45.7495" lon="5.79716">
        <ele>356</ele>
        <time>2018-06-14T14:54:58Z</time>
      </trkpt>
      <trkpt lat="45.74905" lon="5.79713">
        <ele>351</ele>
        <time>2018-06-14T14:55:58Z</time>
      </trkpt>
      <trkpt lat="45.74888" lon="5.79717">
        <ele>351</ele>
        <time>2018-06-14T14:56:58Z</time>
      </trkpt>
      <trkpt lat="45.74873" lon="5.79724">
        <ele>351</ele>
        <time>2018-06-14T14:57:58Z</time>
      </trkpt>
      <trkpt lat="45.74857" lon="5.79734">
        <ele>352</ele>
        <time>2018-06-14T14:58:58Z</time>
      </trkpt>
      <trkpt lat="45.74839" lon="5.79744">
        <ele>354</ele>
        <time>2018-06-14T14:59:58Z</time>
      </trkpt>
      <trkpt lat="45.74739" lon="5.79818">
        <ele>360</ele>
        <time>2018-06-14T15:00:58Z</time>
      </trkpt>
      <trkpt lat="45.74723" lon="5.79827">
        <ele>359</ele>
        <time>2018-06-14T15:01:58Z</time>
      </trkpt>
      <trkpt lat="45.74711" lon="5.79827">
        <ele>359</ele>
        <time>2018-06-14T15:02:58Z</time>
      </trkpt>
      <trkpt lat="45.7468" lon="5.79823">
        <ele>362</ele>
        <time>2018-06-14T15:03:58Z</time>
      </trkpt>
      <trkpt lat="45.74661" lon="5.79819">
        <ele>363</ele>
        <time>2018-06-14T15:04:58Z</time>
      </trkpt>
      <trkpt lat="45.74663" lon="5.79828">
        <ele>366</ele>
        <time>2018-06-14T15:05:58Z</time>
      </trkpt>
      <trkpt lat="45.74702" lon="5.79849">
        <ele>377</ele>
        <time>2018-06-14T15:06:58Z</time>
      </trkpt>
      <trkpt lat="45.74715" lon="5.79857">
        <ele>377</ele>
        <time>2018-06-14T15:07:58Z</time>
      </trkpt>
      <trkpt lat="45.7473" lon="5.79867">
        <ele>378</ele>
        <time>2018-06-14T15:08:58Z</time>
      </trkpt>
      <trkpt lat="45.74735" lon="5.79873">
        <ele>379</ele>
        <time>2018-06-14T15:09:58Z</time>
      </trkpt>
      <trkpt lat="45.74734" lon="5.79884">
        <ele>382</ele>
        <time>2018-06-14T15:10:58Z</time>
      </trkpt>
      <trkpt lat="45.74724" lon="5.79886">
        <ele>382</ele>
        <time>2018-06-14T15:11:58Z</time>
      </trkpt>
      <trkpt lat="45.74706" lon="5.79886">
        <ele>382</ele>
        <time>2018-06-14T15:12:58Z</time>
      </trkpt>
      <trkpt lat="45.74693" lon="5.79888">
        <ele>384</ele>
        <time>2018-06-14T15:13:58Z</time>
      </trkpt>
      <trkpt lat="45.74675" lon="5.79895">
        <ele>387</ele>
        <time>2018-06-14T15:14:58Z</time>
      </trkpt>
      <trkpt lat="45.74654" lon="5.79901">
        <ele>390</ele>
        <time>2018-06-14T15:15:58Z</time>
      </trkpt>
      <trkpt lat="45.74617" lon="5.7991">
        <ele>390</ele>
        <time>2018-06-14T15:16:58Z</time>
      </trkpt>
      <trkpt lat="45.74594" lon="5.79913">
        <ele>394</ele>
        <time>2018-06-14T15:17:58Z</time>
      </trkpt>
      <trkpt lat="45.74571" lon="5.79921">
        <ele>405</ele>
        <time>2018-06-14T15:18:58Z</time>
      </trkpt>
      <trkpt lat="45.74549" lon="5.79927">
        <ele>408</ele>
        <time>2018-06-14T15:19:58Z</time>
      </trkpt>
      <trkpt lat="45.74527" lon="5.79936">
        <ele>406</ele>
        <time>2018-06-14T15:20:58Z</time>
      </trkpt>
      <trkpt lat="45.74505" lon="5.79944">
        <ele>406</ele>
        <time>2018-06-14T15:21:58Z</time>
      </trkpt>
      <trkpt lat="45.74484" lon="5.7995">
        <ele>399</ele>
        <time>2018-06-14T15:22:58Z</time>
      </trkpt>
      <trkpt lat="45.74473" lon="5.79954">
        <ele>399</ele>
        <time>2018-06-14T15:23:58Z</time>
      </trkpt>
      <trkpt lat="45.74457" lon="5.79963">
        <ele>400</ele>
        <time>2018-06-14T15:24:58Z</time>
      </trkpt>
      <trkpt lat="45.74443" lon="5.79965">
        <ele>399</ele>
        <time>2018-06-14T15:25:58Z</time>
      </trkpt>
      <trkpt lat="45.74423" lon="5.79974">
        <ele>401</ele>
        <time>2018-06-14T15:26:58Z</time>
      </trkpt>
      <trkpt lat="45.74382" lon="5.79986">
        <ele>389</ele>
        <time>2018-06-14T15:27:58Z</time>
      </trkpt>
      <trkpt lat="45.74363" lon="5.79991">
        <ele>387</ele>
        <time>2018-06-14T15:28:58Z</time>
      </trkpt>
      <trkpt lat="45.74344" lon="5.8">
        <ele>387</ele>
        <time>2018-06-14T15:29:58Z</time>
      </trkpt>
      <trkpt lat="45.74322" lon="5.80008">
        <ele>391</ele>
        <time>2018-06-14T15:30:58Z</time>
      </trkpt>
      <trkpt lat="45.74297" lon="5.8002">
        <ele>390</ele>
        <time>2018-06-14T15:31:58Z</time>
      </trkpt>
      <trkpt lat="45.74281" lon="5.80029">
        <ele>389</ele>
        <time>2018-06-14T15:32:58Z</time>
      </trkpt>
      <trkpt lat="45.74264" lon="5.80042">
        <ele>390</ele>
        <time>2018-06-14T15:33:58Z</time>
      </trkpt>
      <trkpt lat="45.74247" lon="5.80051">
        <ele>376</ele>
        <time>2018-06-14T15:34:58Z</time>
      </trkpt>
      <trkpt lat="45.74226" lon="5.8007">
        <ele>379</ele>
        <time>2018-06-14T15:35:58Z</time>
      </trkpt>
      <trkpt lat="45.74203" lon="5.80084">
        <ele>396</ele>
        <time>2018-06-14T15:36:58Z</time>
      </trkpt>
      <trkpt lat="45.74179" lon="5.80094">
        <ele>389</ele>
        <time>2018-06-14T15:37:58Z</time>
      </trkpt>
      <trkpt lat="45.74162" lon="5.80107">
        <ele>379</ele>
        <time>2018-06-14T15:38:58Z</time>
      </trkpt>
      <trkpt lat="45.74151" lon="5.80113">
        <ele>380</ele>
        <time>2018-06-14T15:39:58Z</time>
      </trkpt>
      <trkpt lat="45.74123" lon="5.80121">
        <ele>378</ele>
        <time>2018-06-14T15:40:58Z</time>
      </trkpt>
      <trkpt lat="45.74111" lon="5.80126">
        <ele>378</ele>
        <time>2018-06-14T15:41:58Z</time>
      </trkpt>
      <trkpt lat="45.74098" lon="5.80136">
        <ele>379</ele>
        <time>2018-06-14T15:42:58Z</time>
      </trkpt>
      <trkpt lat="45.74084" lon="5.80149">
        <ele>381</ele>
        <time>2018-06-14T15:43:58Z</time>
      </trkpt>
      <trkpt lat="45.74074" lon="5.8016">
        <ele>374</ele>
        <time>2018-06-14T15:44:58Z</time>
      </trkpt>
      <trkpt lat="45.74053" lon="5.80171">
        <ele>382</ele>
        <time>2018-06-14T15:45:58Z</time>
      </trkpt>
      <trkpt lat="45.74042" lon="5.80182">
        <ele>381</ele>
        <time>2018-06-14T15:46:58Z</time>
      </trkpt>
      <trkpt lat="45.74032" lon="5.80198">
        <ele>381</ele>
        <time>2018-06-14T15:47:58Z</time>
      </trkpt>
      <trkpt lat="45.74028" lon="5.80219">
        <ele>384</ele>
        <time>2018-06-14T15:48:58Z</time>
      </trkpt>
      <trkpt lat="45.74023" lon="5.80229">
        <ele>384</ele>
        <time>2018-06-14T15:49:58Z</time>
      </trkpt>
      <trkpt lat="45.74014" lon="5.80234">
        <ele>384</ele>
        <time>2018-06-14T15:50:58Z</time>
      </trkpt>
      <trkpt lat="45.73998" lon="5.8023">
        <ele>371</ele>
        <time>2018-06-14T15:51:58Z</time>
      </trkpt>
      <trkpt lat="45.73982" lon="5.80234">
        <ele>370</ele>
        <time>2018-06-14T15:52:58Z</time>
      </trkpt>
      <trkpt lat="45.73964" lon="5.80246">
        <ele>367</ele>
        <time>2018-06-14T15:53:58Z</time>
      </trkpt>
      <trkpt lat="45.73944" lon="5.80259">
        <ele>380</ele>
        <time>2018-06-14T15:54:58Z</time>
      </trkpt>
      <trkpt lat="45.7392" lon="5.80276">
        <ele>380</ele>
        <time>2018-06-14T15:55:58Z</time>
      </trkpt>
      <trkpt lat="45.739" lon="5.80292">
        <ele>372</ele>
        <time>2018-06-14T15:56:58Z</time>
      </trkpt>
      <trkpt lat="45.7389" lon="5.80301">
        <ele>373</ele>
        <time>2018-06-14T15:57:58Z</time>
      </trkpt>
      <trkpt lat="45.73874" lon="5.80311">
        <ele>373</ele>
        <time>2018-06-14T15:58:58Z</time>
      </trkpt>
      <trkpt lat="45.73858" lon="5.80318">
        <ele>372</ele>
        <time>2018-06-14T15:59:58Z</time>
      </trkpt>
      <trkpt lat="45.73827" lon="5.80332">
        <ele>371</ele>
        <time>2018-06-14T16:00:58Z</time>
      </trkpt>
      <trkpt lat="45.73821" lon="5.80333">
        <ele>369</ele>
        <time>2018-06-14T16:01:58Z</time>
      </trkpt>
      <trkpt lat="45.73804" lon="5.80324">
        <ele>366</ele>
        <time>2018-06-14T16:02:58Z</time>
      </trkpt>
      <trkpt lat="45.73792" lon="5.80321">
        <ele>366</ele>
        <time>2018-06-14T16:03:58Z</time>
      </trkpt>
      <trkpt lat="45.73777" lon="5.8032">
        <ele>366</ele>
        <time>2018-06-14T16:04:58Z</time>
      </trkpt>
      <trkpt lat="45.73755" lon="5.80321">
        <ele>368</ele>
        <time>2018-06-14T16:05:58Z</time>
      </trkpt>
      <trkpt lat="45.73734" lon="5.80316">
        <ele>368</ele>
        <time>2018-06-14T16:06:58Z</time>
      </trkpt>
      <trkpt lat="45.73713" lon="5.80316">
        <ele>367</ele>
        <time>2018-06-14T16:07:58Z</time>
      </trkpt>
      <trkpt lat="45.73701" lon="5.80314">
        <ele>367</ele>
        <time>2018-06-14T16:08:58Z</time>
      </trkpt>
      <trkpt lat="45.73683" lon="5.80311">
        <ele>368</ele>
        <time>2018-06-14T16:09:58Z</time>
      </trkpt>
      <trkpt lat="45.73598" lon="5.80307">
        <ele>371</ele>
        <time>2018-06-14T16:10:58Z</time>
      </trkpt>
      <trkpt lat="45.73588" lon="5.80306">
        <ele>371</ele>
        <time>2018-06-14T16:11:58Z</time>
      </trkpt>
      <trkpt lat="45.73553" lon="5.80297">
        <ele>372</ele>
        <time>2018-06-14T16:12:58Z</time>
      </trkpt>
      <trkpt lat="45.73499" lon="5.80285">
        <ele>376</ele>
        <time>2018-06-14T16:13:58Z</time>
      </trkpt>
      <trkpt lat="45.73491" lon="5.80282">
        <ele>376</ele>
        <time>2018-06-14T16:14:58Z</time>
      </trkpt>
      <trkpt lat="45.73477" lon="5.80285">
        <ele>378</ele>
        <time>2018-06-14T16:15:58Z</time>
      </trkpt>
      <trkpt lat="45.73461" lon="5.80286">
        <ele>379</ele>
        <time>2018-06-14T16:16:58Z</time>
      </trkpt>
      <trkpt lat="45.73402" lon="5.80277">
        <ele>388</ele>
        <time>2018-06-14T16:17:58Z</time>
      </trkpt>
      <trkpt lat="45.73388" lon="5.80273">
        <ele>388</ele>
        <time>2018-06-14T16:18:58Z</time>
      </trkpt>
      <trkpt lat="45.73373" lon="5.8025">
        <ele>389</ele>
        <time>2018-06-14T16:19:58Z</time>
      </trkpt>
      <trkpt lat="45.73364" lon="5.8024">
        <ele>387</ele>
        <time>2018-06-14T16:20:58Z</time>
      </trkpt>
      <trkpt lat="45.73343" lon="5.80227">
        <ele>389</ele>
        <time>2018-06-14T16:21:58Z</time>
      </trkpt>
      <trkpt lat="45.73333" lon="5.8022">
        <ele>394</ele>
        <time>2018-06-14T16:22:58Z</time>
      </trkpt>
      <trkpt lat="45.73308" lon="5.80218">
        <ele>394</ele>
        <time>2018-06-14T16:23:58Z</time>
      </trkpt>
      <trkpt lat="45.73297" lon="5.80218">
        <ele>394</ele>
        <time>2018-06-14T16:24:58Z</time>
      </trkpt>
      <trkpt lat="45.73278" lon="5.80211">
        <ele>395</ele>
        <time>2018-06-14T16:25:58Z</time>
      </trkpt>
      <trkpt lat="45.73258" lon="5.80203">
        <ele>395</ele>
        <time>2018-06-14T16:26:58Z</time>
      </trkpt>
      <trkpt lat="45.73235" lon="5.80195">
        <ele>397</ele>
        <time>2018-06-14T16:27:58Z</time>
      </trkpt>
      <trkpt lat="45.7322" lon="5.8019">
        <ele>397</ele>
        <time>2018-06-14T16:28:58Z</time>
      </trkpt>
      <trkpt lat="45.73208" lon="5.80188">
        <ele>397</ele>
        <time>2018-06-14T16:29:58Z</time>
      </trkpt>
      <trkpt lat="45.73175" lon="5.80177">
        <ele>397</ele>
        <time>2018-06-14T16:30:58Z</time>
      </trkpt>
      <trkpt lat="45.73135" lon="5.80166">
        <ele>396</ele>
        <time>2018-06-14T16:31:58Z</time>
      </trkpt>
      <trkpt lat="45.73116" lon="5.8016">
        <ele>397</ele>
        <time>2018-06-14T16:32:58Z</time>
      </trkpt>
      <trkpt lat="45.73105" lon="5.80155">
        <ele>398</ele>
        <time>2018-06-14T16:33:58Z</time>
      </trkpt>
      <trkpt lat="45.73088" lon="5.80138">
        <ele>398</ele>
        <time>2018-06-14T16:34:58Z</time>
      </trkpt>
      <trkpt lat="45.73083" lon="5.8013">
        <ele>404</ele>
        <time>2018-06-14T16:35:58Z</time>
      </trkpt>
      <trkpt lat="45.73075" lon="5.80126">
        <ele>404</ele>
        <time>2018-06-14T16:36:58Z</time>
      </trkpt>
      <trkpt lat="45.73067" lon="5.80118">
        <ele>404</ele>
        <time>2018-06-14T16:37:58Z</time>
      </trkpt>
      <trkpt lat="45.73062" lon="5.80108">
        <ele>404</ele>
        <time>2018-06-14T16:38:58Z</time>
      </trkpt>
      <trkpt lat="45.73057" lon="5.80092">
        <ele>404</ele>
        <time>2018-06-14T16:39:58Z</time>
      </trkpt>
      <trkpt lat="45.73054" lon="5.80081">
        <ele>402</ele>
        <time>2018-06-14T16:40:58Z</time>
      </trkpt>
      <trkpt lat="45.73047" lon="5.80068">
        <ele>403</ele>
        <time>2018-06-14T16:41:58Z</time>
      </trkpt>
      <trkpt lat="45.73037" lon="5.80057">
        <ele>404</ele>
        <time>2018-06-14T16:42:58Z</time>
      </trkpt>
      <trkpt lat="45.73026" lon="5.80045">
        <ele>405</ele>
        <time>2018-06-14T16:43:58Z</time>
      </trkpt>
      <trkpt lat="45.73016" lon="5.80038">
        <ele>405</ele>
        <time>2018-06-14T16:44:58Z</time>
      </trkpt>
      <trkpt lat="45.73008" lon="5.80034">
        <ele>406</ele>
        <time>2018-06-14T16:45:58Z</time>
      </trkpt>
      <trkpt lat="45.73003" lon="5.80033">
        <ele>406</ele>
        <time>2018-06-14T16:46:58Z</time>
      </trkpt>
      <trkpt lat="45.72992" lon="5.80016">
        <ele>413</ele>
        <time>2018-06-14T16:47:58Z</time>
      </trkpt>
      <trkpt lat="45.72975" lon="5.80003">
        <ele>414</ele>
        <time>2018-06-14T16:48:58Z</time>
      </trkpt>
      <trkpt lat="45.72959" lon="5.7999">
        <ele>412</ele>
        <time>2018-06-14T16:49:58Z</time>
      </trkpt>
      <trkpt lat="45.72941" lon="5.79974">
        <ele>413</ele>
        <time>2018-06-14T16:50:58Z</time>
      </trkpt>
      <trkpt lat="45.72926" lon="5.79962">
        <ele>414</ele>
        <time>2018-06-14T16:51:58Z</time>
      </trkpt>
      <trkpt lat="45.72905" lon="5.79949">
        <ele>419</ele>
        <time>2018-06-14T16:52:58Z</time>
      </trkpt>
      <trkpt lat="45.72879" lon="5.79941">
        <ele>420</ele>
        <time>2018-06-14T16:53:58Z</time>
      </trkpt>
      <trkpt lat="45.72868" lon="5.79941">
        <ele>420</ele>
        <time>2018-06-14T16:54:58Z</time>
      </trkpt>
      <trkpt lat="45.72857" lon="5.79941">
        <ele>421</ele>
        <time>2018-06-14T16:55:58Z</time>
      </trkpt>
      <trkpt lat="45.72847" lon="5.79936">
        <ele>421</ele>
        <time>2018-06-14T16:56:58Z</time>
      </trkpt>
      <trkpt lat="45.72836" lon="5.7993">
        <ele>421</ele>
        <time>2018-06-14T16:57:58Z</time>
      </trkpt>
      <trkpt lat="45.72825" lon="5.79925">
        <ele>422</ele>
        <time>2018-06-14T16:58:58Z</time>
      </trkpt>
      <trkpt lat="45.72816" lon="5.79924">
        <ele>422</ele>
        <time>2018-06-14T16:59:58Z</time>
      </trkpt>
      <trkpt lat="45.72808" lon="5.79919">
        <ele>422</ele>
        <time>2018-06-14T17:00:58Z</time>
      </trkpt>
      <trkpt lat="45.72797" lon="5.79913">
        <ele>420</ele>
        <time>2018-06-14T17:01:58Z</time>
      </trkpt>
      <trkpt lat="45.72787" lon="5.79911">
        <ele>420</ele>
        <time>2018-06-14T17:02:58Z</time>
      </trkpt>
      <trkpt lat="45.72774" lon="5.79909">
        <ele>420</ele>
        <time>2018-06-14T17:03:58Z</time>
      </trkpt>
      <trkpt lat="45.72761" lon="5.79908">
        <ele>420</ele>
        <time>2018-06-14T17:04:58Z</time>
      </trkpt>
      <trkpt lat="45.72745" lon="5.79909">
        <ele>418</ele>
        <time>2018-06-14T17:05:58Z</time>
      </trkpt>
      <trkpt lat="45.72722" lon="5.79913">
        <ele>416</ele>
        <time>2018-06-14T17:06:58Z</time>
      </trkpt>
      <trkpt lat="45.72711" lon="5.79916">
        <ele>414</ele>
        <time>2018-06-14T17:07:58Z</time>
      </trkpt>
      <trkpt lat="45.72693" lon="5.79916">
        <ele>413</ele>
        <time>2018-06-14T17:08:58Z</time>
      </trkpt>
      <trkpt lat="45.72677" lon="5.79915">
        <ele>411</ele>
        <time>2018-06-14T17:09:58Z</time>
      </trkpt>
      <trkpt lat="45.72663" lon="5.79913">
        <ele>408</ele>
        <time>2018-06-14T17:10:58Z</time>
      </trkpt>
      <trkpt lat="45.7265" lon="5.79912">
        <ele>406</ele>
        <time>2018-06-14T17:11:58Z</time>
      </trkpt>
      <trkpt lat="45.7263" lon="5.79909">
        <ele>404</ele>
        <time>2018-06-14T17:12:58Z</time>
      </trkpt>
      <trkpt lat="45.7262" lon="5.79908">
        <ele>403</ele>
        <time>2018-06-14T17:13:58Z</time>
      </trkpt>
      <trkpt lat="45.7261" lon="5.79912">
        <ele>402</ele>
        <time>2018-06-14T17:14:58Z</time>
      </trkpt>
      <trkpt lat="45.72601" lon="5.79914">
        <ele>400</ele>
        <time>2018-06-14T17:15:58Z</time>
      </trkpt>
      <trkpt lat="45.72592" lon="5.7991">
        <ele>399</ele>
        <time>2018-06-14T17:16:58Z</time>
      </trkpt>
      <trkpt lat="45.72582" lon="5.79903">
        <ele>394</ele>
        <time>2018-06-14T17:17:58Z</time>
      </trkpt>
      <trkpt lat="45.72569" lon="5.799">
        <ele>393</ele>
        <time>2018-06-14T17:18:58Z</time>
      </trkpt>
      <trkpt lat="45.72555" lon="5.79899">
        <ele>392</ele>
        <time>2018-06-14T17:19:58Z</time>
      </trkpt>
      <trkpt lat="45.72539" lon="5.79903">
        <ele>390</ele>
        <time>2018-06-14T17:20:58Z</time>
      </trkpt>
      <trkpt lat="45.72529" lon="5.79907">
        <ele>389</ele>
        <time>2018-06-14T17:21:58Z</time>
      </trkpt>
      <trkpt lat="45.72518" lon="5.79916">
        <ele>387</ele>
        <time>2018-06-14T17:22:58Z</time>
      </trkpt>
      <trkpt lat="45.72504" lon="5.79923">
        <ele>385</ele>
        <time>2018-06-14T17:23:58Z</time>
      </trkpt>
      <trkpt lat="45.72493" lon="5.7993">
        <ele>382</ele>
        <time>2018-06-14T17:24:58Z</time>
      </trkpt>
      <trkpt lat="45.72473" lon="5.79946">
        <ele>382</ele>
        <time>2018-06-14T17:25:58Z</time>
      </trkpt>
      <trkpt lat="45.72471" lon="5.79959">
        <ele>382</ele>
        <time>2018-06-14T17:26:58Z</time>
      </trkpt>
      <trkpt lat="45.72459" lon="5.79967">
        <ele>382</ele>
        <time>2018-06-14T17:27:58Z</time>
      </trkpt>
      <trkpt lat="45.72445" lon="5.79975">
        <ele>382</ele>
        <time>2018-06-14T17:28:58Z</time>
      </trkpt>
      <trkpt lat="45.72428" lon="5.79982">
        <ele>382</ele>
        <time>2018-06-14T17:29:58Z</time>
      </trkpt>
      <trkpt lat="45.72415" lon="5.79986">
        <ele>379</ele>
        <time>2018-06-14T17:30:58Z</time>
      </trkpt>
      <trkpt lat="45.724" lon="5.79993">
        <ele>379</ele>
        <time>2018-06-14T17:31:58Z</time>
      </trkpt>
      <trkpt lat="45.72382" lon="5.80004">
        <ele>386</ele>
        <time>2018-06-14T17:32:58Z</time>
      </trkpt>
      <trkpt lat="45.72369" lon="5.80011">
        <ele>386</ele>
        <time>2018-06-14T17:33:58Z</time>
      </trkpt>
      <trkpt lat="45.72352" lon="5.80016">
        <ele>385</ele>
        <time>2018-06-14T17:34:58Z</time>
      </trkpt>
      <trkpt lat="45.7234" lon="5.80021">
        <ele>385</ele>
        <time>2018-06-14T17:35:58Z</time>
      </trkpt>
      <trkpt lat="45.72327" lon="5.80027">
        <ele>384</ele>
        <time>2018-06-14T17:36:58Z</time>
      </trkpt>
      <trkpt lat="45.72315" lon="5.80035">
        <ele>384</ele>
        <time>2018-06-14T17:37:58Z</time>
      </trkpt>
      <trkpt lat="45.72299" lon="5.80046">
        <ele>385</ele>
        <time>2018-06-14T17:38:58Z</time>
      </trkpt>
      <trkpt lat="45.72279" lon="5.8006">
        <ele>385</ele>
        <time>2018-06-14T17:39:58Z</time>
      </trkpt>
      <trkpt lat="45.72271" lon="5.80065">
        <ele>385</ele>
        <time>2018-06-14T17:40:58Z</time>
      </trkpt>
      <trkpt lat="45.72264" lon="5.80065">
        <ele>385</ele>
        <time>2018-06-14T17:41:58Z</time>
      </trkpt>
      <trkpt lat="45.72256" lon="5.80066">
        <ele>385</ele>
        <time>2018-06-14T17:42:58Z</time>
      </trkpt>
      <trkpt lat="45.72232" lon="5.80075">
        <ele>382</ele>
        <time>2018-06-14T17:43:58Z</time>
      </trkpt>
      <trkpt lat="45.72213" lon="5.80083">
        <ele>381</ele>
        <time>2018-06-14T17:44:58Z</time>
      </trkpt>
      <trkpt lat="45.72197" lon="5.80089">
        <ele>385</ele>
        <time>2018-06-14T17:45:58Z</time>
      </trkpt>
      <trkpt lat="45.72179" lon="5.80098">
        <ele>384</ele>
        <time>2018-06-14T17:46:58Z</time>
      </trkpt>
      <trkpt lat="45.72158" lon="5.80107">
        <ele>384</ele>
        <time>2018-06-14T17:47:58Z</time>
      </trkpt>
      <trkpt lat="45.72148" lon="5.80113">
        <ele>384</ele>
        <time>2018-06-14T17:48:58Z</time>
      </trkpt>
      <trkpt lat="45.72132" lon="5.80126">
        <ele>385</ele>
        <time>2018-06-14T17:49:58Z</time>
      </trkpt>
      <trkpt lat="45.72122" lon="5.80131">
        <ele>386</ele>
        <time>2018-06-14T17:50:58Z</time>
      </trkpt>
      <trkpt lat="45.72102" lon="5.80142">
        <ele>386</ele>
        <time>2018-06-14T17:51:58Z</time>
      </trkpt>
      <trkpt lat="45.72091" lon="5.80155">
        <ele>387</ele>
        <time>2018-06-14T17:52:58Z</time>
      </trkpt>
      <trkpt lat="45.72085" lon="5.80163">
        <ele>388</ele>
        <time>2018-06-14T17:53:58Z</time>
      </trkpt>
      <trkpt lat="45.72078" lon="5.80171">
        <ele>389</ele>
        <time>2018-06-14T17:54:58Z</time>
      </trkpt>
      <trkpt lat="45.72065" lon="5.8018">
        <ele>389</ele>
        <time>2018-06-14T17:55:58Z</time>
      </trkpt>
      <trkpt lat="45.72055" lon="5.80189">
        <ele>388</ele>
        <time>2018-06-14T17:56:58Z</time>
      </trkpt>
      <trkpt lat="45.72044" lon="5.80198">
        <ele>388</ele>
        <time>2018-06-14T17:57:58Z</time>
      </trkpt>
      <trkpt lat="45.72035" lon="5.80208">
        <ele>388</ele>
        <time>2018-06-14T17:58:58Z</time>
      </trkpt>
      <trkpt lat="45.72027" lon="5.8022">
        <ele>388</ele>
        <time>2018-06-14T17:59:58Z</time>
      </trkpt>
      <trkpt lat="45.72021" lon="5.80233">
        <ele>388</ele>
        <time>2018-06-14T18:00:58Z</time>
      </trkpt>
      <trkpt lat="45.72016" lon="5.80253">
        <ele>389</ele>
        <time>2018-06-14T18:01:58Z</time>
      </trkpt>
      <trkpt lat="45.72014" lon="5.80267">
        <ele>390</ele>
        <time>2018-06-14T18:02:58Z</time>
      </trkpt>
      <trkpt lat="45.72012" lon="5.80309">
        <ele>392</ele>
        <time>2018-06-14T18:03:58Z</time>
      </trkpt>
      <trkpt lat="45.7201" lon="5.8033">
        <ele>391</ele>
        <time>2018-06-14T18:04:58Z</time>
      </trkpt>
      <trkpt lat="45.72006" lon="5.80344">
        <ele>394</ele>
        <time>2018-06-14T18:05:58Z</time>
      </trkpt>
      <trkpt lat="45.71999" lon="5.80365">
        <ele>391</ele>
        <time>2018-06-14T18:06:58Z</time>
      </trkpt>
      <trkpt lat="45.71982" lon="5.80401">
        <ele>393</ele>
        <time>2018-06-14T18:07:58Z</time>
      </trkpt>
      <trkpt lat="45.71966" lon="5.8044">
        <ele>397</ele>
        <time>2018-06-14T18:08:58Z</time>
      </trkpt>
      <trkpt lat="45.71957" lon="5.80464">
        <ele>397</ele>
        <time>2018-06-14T18:09:58Z</time>
      </trkpt>
      <trkpt lat="45.71953" lon="5.80497">
        <ele>398</ele>
        <time>2018-06-14T18:10:58Z</time>
      </trkpt>
      <trkpt lat="45.71947" lon="5.80535">
        <ele>403</ele>
        <time>2018-06-14T18:11:58Z</time>
      </trkpt>
      <trkpt lat="45.71942" lon="5.80543">
        <ele>403</ele>
        <time>2018-06-14T18:12:58Z</time>
      </trkpt>
      <trkpt lat="45.71927" lon="5.80512">
        <ele>400</ele>
        <time>2018-06-14T18:13:58Z</time>
      </trkpt>
      <trkpt lat="45.71918" lon="5.80493">
        <ele>396</ele>
        <time>2018-06-14T18:14:58Z</time>
      </trkpt>
      <trkpt lat="45.719" lon="5.8046">
        <ele>393</ele>
        <time>2018-06-14T18:15:58Z</time>
      </trkpt>
      <trkpt lat="45.7189" lon="5.80439">
        <ele>393</ele>
        <time>2018-06-14T18:16:58Z</time>
      </trkpt>
      <trkpt lat="45.71875" lon="5.80405">
        <ele>388</ele>
        <time>2018-06-14T18:17:58Z</time>
      </trkpt>
      <trkpt lat="45.71861" lon="5.80373">
        <ele>387</ele>
        <time>2018-06-14T18:18:58Z</time>
      </trkpt>
      <trkpt lat="45.71852" lon="5.80357">
        <ele>387</ele>
        <time>2018-06-14T18:19:58Z</time>
      </trkpt>
      <trkpt lat="45.71836" lon="5.80326">
        <ele>383</ele>
        <time>2018-06-14T18:20:58Z</time>
      </trkpt>
      <trkpt lat="45.71823" lon="5.80306">
        <ele>381</ele>
        <time>2018-06-14T18:21:58Z</time>
      </trkpt>
      <trkpt lat="45.71814" lon="5.80298">
        <ele>381</ele>
        <time>2018-06-14T18:22:58Z</time>
      </trkpt>
      <trkpt lat="45.71794" lon="5.80294">
        <ele>381</ele>
        <time>2018-06-14T18:23:58Z</time>
      </trkpt>
      <trkpt lat="45.71787" lon="5.80301">
        <ele>381</ele>
        <time>2018-06-14T18:24:58Z</time>
      </trkpt>
      <trkpt lat="45.71779" lon="5.80301">
        <ele>381</ele>
        <time>2018-06-14T18:25:58Z</time>
      </trkpt>
      <trkpt lat="45.71769" lon="5.80298">
        <ele>381</ele>
        <time>2018-06-14T18:26:58Z</time>
      </trkpt>
      <trkpt lat="45.71756" lon="5.80295">
        <ele>381</ele>
        <time>2018-06-14T18:27:58Z</time>
      </trkpt>
      <trkpt lat="45.71736" lon="5.80293">
        <ele>379</ele>
        <time>2018-06-14T18:28:58Z</time>
      </trkpt>
      <trkpt lat="45.71718" lon="5.80294">
        <ele>379</ele>
        <time>2018-06-14T18:29:58Z</time>
      </trkpt>
      <trkpt lat="45.71687" lon="5.80299">
        <ele>379</ele>
        <time>2018-06-14T18:30:58Z</time>
      </trkpt>
      <trkpt lat="45.71675" lon="5.80299">
        <ele>379</ele>
        <time>2018-06-14T18:31:58Z</time>
      </trkpt>
      <trkpt lat="45.71662" lon="5.80297">
        <ele>378</ele>
        <time>2018-06-14T18:32:58Z</time>
      </trkpt>
      <trkpt lat="45.71652" lon="5.80291">
        <ele>378</ele>
        <time>2018-06-14T18:33:58Z</time>
      </trkpt>
      <trkpt lat="45.71642" lon="5.80284">
        <ele>377</ele>
        <time>2018-06-14T18:34:58Z</time>
      </trkpt>
      <trkpt lat="45.71631" lon="5.80307">
        <ele>378</ele>
        <time>2018-06-14T18:35:58Z</time>
      </trkpt>
      <trkpt lat="45.71611" lon="5.80366">
        <ele>381</ele>
        <time>2018-06-14T18:36:58Z</time>
      </trkpt>
      <trkpt lat="45.71596" lon="5.80401">
        <ele>381</ele>
        <time>2018-06-14T18:37:58Z</time>
      </trkpt>
      <trkpt lat="45.71592" lon="5.80416">
        <ele>380</ele>
        <time>2018-06-14T18:38:58Z</time>
      </trkpt>
      <trkpt lat="45.71586" lon="5.80458">
        <ele>383</ele>
        <time>2018-06-14T18:39:58Z</time>
      </trkpt>
      <trkpt lat="45.71585" lon="5.80477">
        <ele>383</ele>
        <time>2018-06-14T18:40:58Z</time>
      </trkpt>
      <trkpt lat="45.7158" lon="5.80482">
        <ele>381</ele>
        <time>2018-06-14T18:41:58Z</time>
      </trkpt>
      <trkpt lat="45.71566" lon="5.80484">
        <ele>381</ele>
        <time>2018-06-14T18:42:58Z</time>
      </trkpt>
      <trkpt lat="45.7156" lon="5.80487">
        <ele>381</ele>
        <time>2018-06-14T18:43:58Z</time>
      </trkpt>
      <trkpt lat="45.71555" lon="5.805">
        <ele>381</ele>
        <time>2018-06-14T18:44:58Z</time>
      </trkpt>
      <trkpt lat="45.71547" lon="5.80519">
        <ele>382</ele>
        <time>2018-06-14T18:45:58Z</time>
      </trkpt>
      <trkpt lat="45.71536" lon="5.80531">
        <ele>382</ele>
        <time>2018-06-14T18:46:58Z</time>
      </trkpt>
      <trkpt lat="45.71504" lon="5.80563">
        <ele>382</ele>
        <time>2018-06-14T18:47:58Z</time>
      </trkpt>
      <trkpt lat="45.7149" lon="5.80571">
        <ele>383</ele>
        <time>2018-06-14T18:48:58Z</time>
      </trkpt>
      <trkpt lat="45.71463" lon="5.80583">
        <ele>384</ele>
        <time>2018-06-14T18:49:58Z</time>
      </trkpt>
      <trkpt lat="45.71448" lon="5.80597">
        <ele>387</ele>
        <time>2018-06-14T18:50:58Z</time>
      </trkpt>
      <trkpt lat="45.71437" lon="5.80611">
        <ele>387</ele>
        <time>2018-06-14T18:51:58Z</time>
      </trkpt>
      <trkpt lat="45.71424" lon="5.80623">
        <ele>388</ele>
        <time>2018-06-14T18:52:58Z</time>
      </trkpt>
      <trkpt lat="45.71411" lon="5.80629">
        <ele>391</ele>
        <time>2018-06-14T18:53:58Z</time>
      </trkpt>
      <trkpt lat="45.714" lon="5.80636">
        <ele>392</ele>
        <time>2018-06-14T18:54:58Z</time>
      </trkpt>
      <trkpt lat="45.71385" lon="5.80647">
        <ele>392</ele>
        <time>2018-06-14T18:55:58Z</time>
      </trkpt>
      <trkpt lat="45.71361" lon="5.80678">
        <ele>396</ele>
        <time>2018-06-14T18:56:58Z</time>
      </trkpt>
      <trkpt lat="45.71344" lon="5.807">
        <ele>397</ele>
        <time>2018-06-14T18:57:58Z</time>
      </trkpt>
      <trkpt lat="45.71327" lon="5.80716">
        <ele>403</ele>
        <time>2018-06-14T18:58:58Z</time>
      </trkpt>
      <trkpt lat="45.71302" lon="5.80738">
        <ele>405</ele>
        <time>2018-06-14T18:59:58Z</time>
      </trkpt>
      <trkpt lat="45.71276" lon="5.80762">
        <ele>408</ele>
        <time>2018-06-14T19:00:58Z</time>
      </trkpt>
      <trkpt lat="45.71251" lon="5.80786">
        <ele>409</ele>
        <time>2018-06-14T19:01:58Z</time>
      </trkpt>
      <trkpt lat="45.71226" lon="5.80809">
        <ele>415</ele>
        <time>2018-06-14T19:02:58Z</time>
      </trkpt>
      <trkpt lat="45.71203" lon="5.80829">
        <ele>416</ele>
        <time>2018-06-14T19:03:58Z</time>
      </trkpt>
      <trkpt lat="45.71192" lon="5.80837">
        <ele>415</ele>
        <time>2018-06-14T19:04:58Z</time>
      </trkpt>
      <trkpt lat="45.71178" lon="5.80845">
        <ele>416</ele>
        <time>2018-06-14T19:05:58Z</time>
      </trkpt>
      <trkpt lat="45.71163" lon="5.80863">
        <ele>417</ele>
        <time>2018-06-14T19:06:58Z</time>
      </trkpt>
      <trkpt lat="45.71152" lon="5.80889">
        <ele>416</ele>
        <time>2018-06-14T19:07:58Z</time>
      </trkpt>
      <trkpt lat="45.71142" lon="5.80924">
        <ele>412</ele>
        <time>2018-06-14T19:08:58Z</time>
      </trkpt>
      <trkpt lat="45.7113" lon="5.80966">
        <ele>410</ele>
        <time>2018-06-14T19:09:58Z</time>
      </trkpt>
      <trkpt lat="45.71118" lon="5.81008">
        <ele>406</ele>
        <time>2018-06-14T19:10:58Z</time>
      </trkpt>
      <trkpt lat="45.71109" lon="5.81045">
        <ele>405</ele>
        <time>2018-06-14T19:11:58Z</time>
      </trkpt>
      <trkpt lat="45.711" lon="5.8108">
        <ele>402</ele>
        <time>2018-06-14T19:12:58Z</time>
      </trkpt>
      <trkpt lat="45.71094" lon="5.81087">
        <ele>400</ele>
        <time>2018-06-14T19:13:58Z</time>
      </trkpt>
      <trkpt lat="45.71088" lon="5.8108">
        <ele>400</ele>
        <time>2018-06-14T19:14:58Z</time>
      </trkpt>
      <trkpt lat="45.7108" lon="5.81067">
        <ele>400</ele>
        <time>2018-06-14T19:15:58Z</time>
      </trkpt>
      <trkpt lat="45.71073" lon="5.81046">
        <ele>400</ele>
        <time>2018-06-14T19:16:58Z</time>
      </trkpt>
      <trkpt lat="45.71068" lon="5.81029">
        <ele>401</ele>
        <time>2018-06-14T19:17:58Z</time>
      </trkpt>
      <trkpt lat="45.71059" lon="5.81015">
        <ele>402</ele>
        <time>2018-06-14T19:18:58Z</time>
      </trkpt>
      <trkpt lat="45.71051" lon="5.81009">
        <ele>402</ele>
        <time>2018-06-14T19:19:58Z</time>
      </trkpt>
      <trkpt lat="45.71036" lon="5.81">
        <ele>408</ele>
        <time>2018-06-14T19:20:58Z</time>
      </trkpt>
      <trkpt lat="45.7102" lon="5.80991">
        <ele>407</ele>
        <time>2018-06-14T19:21:58Z</time>
      </trkpt>
      <trkpt lat="45.71008" lon="5.80987">
        <ele>406</ele>
        <time>2018-06-14T19:22:58Z</time>
      </trkpt>
      <trkpt lat="45.70987" lon="5.80983">
        <ele>408</ele>
        <time>2018-06-14T19:23:58Z</time>
      </trkpt>
      <trkpt lat="45.70961" lon="5.80982">
        <ele>409</ele>
        <time>2018-06-14T19:24:58Z</time>
      </trkpt>
      <trkpt lat="45.70937" lon="5.80981">
        <ele>409</ele>
        <time>2018-06-14T19:25:58Z</time>
      </trkpt>
      <trkpt lat="45.7092" lon="5.80981">
        <ele>408</ele>
        <time>2018-06-14T19:26:58Z</time>
      </trkpt>
      <trkpt lat="45.70897" lon="5.80982">
        <ele>413</ele>
        <time>2018-06-14T19:27:58Z</time>
      </trkpt>
      <trkpt lat="45.70885" lon="5.80981">
        <ele>415</ele>
        <time>2018-06-14T19:28:58Z</time>
      </trkpt>
      <trkpt lat="45.70875" lon="5.80984">
        <ele>416</ele>
        <time>2018-06-14T19:29:58Z</time>
      </trkpt>
      <trkpt lat="45.7086" lon="5.80997">
        <ele>417</ele>
        <time>2018-06-14T19:30:58Z</time>
      </trkpt>
      <trkpt lat="45.70846" lon="5.81016">
        <ele>413</ele>
        <time>2018-06-14T19:31:58Z</time>
      </trkpt>
      <trkpt lat="45.70833" lon="5.8103">
        <ele>423</ele>
        <time>2018-06-14T19:32:58Z</time>
      </trkpt>
      <trkpt lat="45.70818" lon="5.81045">
        <ele>423</ele>
        <time>2018-06-14T19:33:58Z</time>
      </trkpt>
      <trkpt lat="45.70797" lon="5.81071">
        <ele>424</ele>
        <time>2018-06-14T19:34:58Z</time>
      </trkpt>
      <trkpt lat="45.70788" lon="5.8108">
        <ele>425</ele>
        <time>2018-06-14T19:35:58Z</time>
      </trkpt>
      <trkpt lat="45.70775" lon="5.81112">
        <ele>421</ele>
        <time>2018-06-14T19:36:58Z</time>
      </trkpt>
      <trkpt lat="45.70766" lon="5.81157">
        <ele>423</ele>
        <time>2018-06-14T19:37:58Z</time>
      </trkpt>
      <trkpt lat="45.70759" lon="5.81174">
        <ele>422</ele>
        <time>2018-06-14T19:38:58Z</time>
      </trkpt>
      <trkpt lat="45.70742" lon="5.81192">
        <ele>430</ele>
        <time>2018-06-14T19:39:58Z</time>
      </trkpt>
      <trkpt lat="45.70728" lon="5.81196">
        <ele>430</ele>
        <time>2018-06-14T19:40:58Z</time>
      </trkpt>
      <trkpt lat="45.70714" lon="5.812">
        <ele>431</ele>
        <time>2018-06-14T19:41:58Z</time>
      </trkpt>
      <trkpt lat="45.70693" lon="5.81207">
        <ele>433</ele>
        <time>2018-06-14T19:42:58Z</time>
      </trkpt>
      <trkpt lat="45.70678" lon="5.81217">
        <ele>433</ele>
        <time>2018-06-14T19:43:58Z</time>
      </trkpt>
      <trkpt lat="45.7067" lon="5.81234">
        <ele>434</ele>
        <time>2018-06-14T19:44:58Z</time>
      </trkpt>
      <trkpt lat="45.70666" lon="5.81258">
        <ele>436</ele>
        <time>2018-06-14T19:45:58Z</time>
      </trkpt>
      <trkpt lat="45.70657" lon="5.81294">
        <ele>438</ele>
        <time>2018-06-14T19:46:58Z</time>
      </trkpt>
      <trkpt lat="45.70649" lon="5.81307">
        <ele>438</ele>
        <time>2018-06-14T19:47:58Z</time>
      </trkpt>
      <trkpt lat="45.70648" lon="5.81334">
        <ele>435</ele>
        <time>2018-06-14T19:48:58Z</time>
      </trkpt>
      <trkpt lat="45.70636" lon="5.81372">
        <ele>436</ele>
        <time>2018-06-14T19:49:58Z</time>
      </trkpt>
      <trkpt lat="45.70629" lon="5.81396">
        <ele>436</ele>
        <time>2018-06-14T19:50:58Z</time>
      </trkpt>
      <trkpt lat="45.7062" lon="5.81411">
        <ele>437</ele>
        <time>2018-06-14T19:51:58Z</time>
      </trkpt>
      <trkpt lat="45.70605" lon="5.81442">
        <ele>431</ele>
        <time>2018-06-14T19:52:58Z</time>
      </trkpt>
      <trkpt lat="45.70583" lon="5.81481">
        <ele>439</ele>
        <time>2018-06-14T19:53:58Z</time>
      </trkpt>
      <trkpt lat="45.70574" lon="5.81498">
        <ele>438</ele>
        <time>2018-06-14T19:54:58Z</time>
      </trkpt>
      <trkpt lat="45.70558" lon="5.81523">
        <ele>432</ele>
        <time>2018-06-14T19:55:58Z</time>
      </trkpt>
      <trkpt lat="45.70543" lon="5.81544">
        <ele>431</ele>
        <time>2018-06-14T19:56:58Z</time>
      </trkpt>
      <trkpt lat="45.70524" lon="5.81568">
        <ele>431</ele>
        <time>2018-06-14T19:57:58Z</time>
      </trkpt>
      <trkpt lat="45.70518" lon="5.81579">
        <ele>431</ele>
        <time>2018-06-14T19:58:58Z</time>
      </trkpt>
      <trkpt lat="45.70498" lon="5.81608">
        <ele>425</ele>
        <time>2018-06-14T19:59:58Z</time>
      </trkpt>
      <trkpt lat="45.7049" lon="5.81624">
        <ele>422</ele>
        <time>2018-06-14T20:00:58Z</time>
      </trkpt>
      <trkpt lat="45.70481" lon="5.81637">
        <ele>420</ele>
        <time>2018-06-14T20:01:58Z</time>
      </trkpt>
      <trkpt lat="45.70474" lon="5.81658">
        <ele>418</ele>
        <time>2018-06-14T20:02:58Z</time>
      </trkpt>
      <trkpt lat="45.70454" lon="5.81676">
        <ele>403</ele>
        <time>2018-06-14T20:03:58Z</time>
      </trkpt>
      <trkpt lat="45.70443" lon="5.81684">
        <ele>403</ele>
        <time>2018-06-14T20:04:58Z</time>
      </trkpt>
      <trkpt lat="45.70431" lon="5.81689">
        <ele>403</ele>
        <time>2018-06-14T20:05:58Z</time>
      </trkpt>
      <trkpt lat="45.7042" lon="5.81698">
        <ele>401</ele>
        <time>2018-06-14T20:06:58Z</time>
      </trkpt>
      <trkpt lat="45.70401" lon="5.81717">
        <ele>398</ele>
        <time>2018-06-14T20:07:58Z</time>
      </trkpt>
      <trkpt lat="45.70395" lon="5.81732">
        <ele>396</ele>
        <time>2018-06-14T20:08:58Z</time>
      </trkpt>
      <trkpt lat="45.70382" lon="5.8175">
        <ele>396</ele>
        <time>2018-06-14T20:09:58Z</time>
      </trkpt>
      <trkpt lat="45.70366" lon="5.81769">
        <ele>378</ele>
        <time>2018-06-14T20:10:58Z</time>
      </trkpt>
      <trkpt lat="45.70351" lon="5.81785">
        <ele>375</ele>
        <time>2018-06-14T20:11:58Z</time>
      </trkpt>
      <trkpt lat="45.70339" lon="5.81794">
        <ele>373</ele>
        <time>2018-06-14T20:12:58Z</time>
      </trkpt>
      <trkpt lat="45.70327" lon="5.81805">
        <ele>372</ele>
        <time>2018-06-14T20:13:58Z</time>
      </trkpt>
      <trkpt lat="45.70315" lon="5.81814">
        <ele>370</ele>
        <time>2018-06-14T20:14:58Z</time>
      </trkpt>
      <trkpt lat="45.70295" lon="5.81834">
        <ele>352</ele>
        <time>2018-06-14T20:15:58Z</time>
      </trkpt>
      <trkpt lat="45.70284" lon="5.81838">
        <ele>352</ele>
        <time>2018-06-14T20:16:58Z</time>
      </trkpt>
      <trkpt lat="45.70259" lon="5.8185">
        <ele>353</ele>
        <time>2018-06-14T20:17:58Z</time>
      </trkpt>
      <trkpt lat="45.70249" lon="5.81856">
        <ele>354</ele>
        <time>2018-06-14T20:18:58Z</time>
      </trkpt>
      <trkpt lat="45.70237" lon="5.81867">
        <ele>351</ele>
        <time>2018-06-14T20:19:58Z</time>
      </trkpt>
      <trkpt lat="45.70227" lon="5.81884">
        <ele>347</ele>
        <time>2018-06-14T20:20:58Z</time>
      </trkpt>
      <trkpt lat="45.70206" lon="5.81897">
        <ele>347</ele>
        <time>2018-06-14T20:21:58Z</time>
      </trkpt>
      <trkpt lat="45.70198" lon="5.81916">
        <ele>346</ele>
        <time>2018-06-14T20:22:58Z</time>
      </trkpt>
      <trkpt lat="45.7019" lon="5.81929">
        <ele>335</ele>
        <time>2018-06-14T20:23:58Z</time>
      </trkpt>
      <trkpt lat="45.70172" lon="5.81953">
        <ele>333</ele>
        <time>2018-06-14T20:24:58Z</time>
      </trkpt>
      <trkpt lat="45.70159" lon="5.81958">
        <ele>335</ele>
        <time>2018-06-14T20:25:58Z</time>
      </trkpt>
      <trkpt lat="45.70135" lon="5.81956">
        <ele>335</ele>
        <time>2018-06-14T20:26:58Z</time>
      </trkpt>
      <trkpt lat="45.70108" lon="5.8195">
        <ele>336</ele>
        <time>2018-06-14T20:27:58Z</time>
      </trkpt>
      <trkpt lat="45.70094" lon="5.81949">
        <ele>336</ele>
        <time>2018-06-14T20:28:58Z</time>
      </trkpt>
      <trkpt lat="45.7007" lon="5.81956">
        <ele>333</ele>
        <time>2018-06-14T20:29:58Z</time>
      </trkpt>
      <trkpt lat="45.70056" lon="5.81965">
        <ele>332</ele>
        <time>2018-06-14T20:30:58Z</time>
      </trkpt>
      <trkpt lat="45.70043" lon="5.81975">
        <ele>331</ele>
        <time>2018-06-14T20:31:58Z</time>
      </trkpt>
      <trkpt lat="45.70032" lon="5.81984">
        <ele>330</ele>
        <time>2018-06-14T20:32:58Z</time>
      </trkpt>
      <trkpt lat="45.7002" lon="5.81993">
        <ele>328</ele>
        <time>2018-06-14T20:33:58Z</time>
      </trkpt>
      <trkpt lat="45.70013" lon="5.82002">
        <ele>322</ele>
        <time>2018-06-14T20:34:58Z</time>
      </trkpt>
      <trkpt lat="45.70002" lon="5.82008">
        <ele>322</ele>
        <time>2018-06-14T20:35:58Z</time>
      </trkpt>
      <trkpt lat="45.69986" lon="5.82021">
        <ele>320</ele>
        <time>2018-06-14T20:36:58Z</time>
      </trkpt>
      <trkpt lat="45.69971" lon="5.82037">
        <ele>319</ele>
        <time>2018-06-14T20:37:58Z</time>
      </trkpt>
      <trkpt lat="45.69955" lon="5.82053">
        <ele>318</ele>
        <time>2018-06-14T20:38:58Z</time>
      </trkpt>
      <trkpt lat="45.69938" lon="5.82072">
        <ele>318</ele>
        <time>2018-06-14T20:39:58Z</time>
      </trkpt>
      <trkpt lat="45.69926" lon="5.8208">
        <ele>317</ele>
        <time>2018-06-14T20:40:58Z</time>
      </trkpt>
      <trkpt lat="45.69898" lon="5.82094">
        <ele>314</ele>
        <time>2018-06-14T20:41:58Z</time>
      </trkpt>
      <trkpt lat="45.69885" lon="5.82096">
        <ele>313</ele>
        <time>2018-06-14T20:42:58Z</time>
      </trkpt>
      <trkpt lat="45.69873" lon="5.82095">
        <ele>313</ele>
        <time>2018-06-14T20:43:58Z</time>
      </trkpt>
      <trkpt lat="45.69852" lon="5.82089">
        <ele>313</ele>
        <time>2018-06-14T20:44:58Z</time>
      </trkpt>
      <trkpt lat="45.69821" lon="5.82085">
        <ele>313</ele>
        <time>2018-06-14T20:45:58Z</time>
      </trkpt>
      <trkpt lat="45.6981" lon="5.82086">
        <ele>313</ele>
        <time>2018-06-14T20:46:58Z</time>
      </trkpt>
      <trkpt lat="45.69797" lon="5.82088">
        <ele>313</ele>
        <time>2018-06-14T20:47:58Z</time>
      </trkpt>
      <trkpt lat="45.69776" lon="5.82096">
        <ele>313</ele>
        <time>2018-06-14T20:48:58Z</time>
      </trkpt>
      <trkpt lat="45.69742" lon="5.82121">
        <ele>312</ele>
        <time>2018-06-14T20:49:58Z</time>
      </trkpt>
      <trkpt lat="45.69728" lon="5.82129">
        <ele>311</ele>
        <time>2018-06-14T20:50:58Z</time>
      </trkpt>
      <trkpt lat="45.69692" lon="5.82159">
        <ele>310</ele>
        <time>2018-06-14T20:51:58Z</time>
      </trkpt>
      <trkpt lat="45.69675" lon="5.82171">
        <ele>309</ele>
        <time>2018-06-14T20:52:58Z</time>
      </trkpt>
      <trkpt lat="45.69647" lon="5.82198">
        <ele>309</ele>
        <time>2018-06-14T20:53:58Z</time>
      </trkpt>
      <trkpt lat="45.69624" lon="5.82226">
        <ele>309</ele>
        <time>2018-06-14T20:54:58Z</time>
      </trkpt>
      <trkpt lat="45.69605" lon="5.82249">
        <ele>310</ele>
        <time>2018-06-14T20:55:58Z</time>
      </trkpt>
      <trkpt lat="45.69594" lon="5.82262">
        <ele>311</ele>
        <time>2018-06-14T20:56:58Z</time>
      </trkpt>
      <trkpt lat="45.69573" lon="5.82291">
        <ele>313</ele>
        <time>2018-06-14T20:57:58Z</time>
      </trkpt>
      <trkpt lat="45.69564" lon="5.82308">
        <ele>313</ele>
        <time>2018-06-14T20:58:58Z</time>
      </trkpt>
      <trkpt lat="45.69543" lon="5.82343">
        <ele>313</ele>
        <time>2018-06-14T20:59:58Z</time>
      </trkpt>
      <trkpt lat="45.69533" lon="5.82358">
        <ele>313</ele>
        <time>2018-06-14T21:00:58Z</time>
      </trkpt>
      <trkpt lat="45.69518" lon="5.82382">
        <ele>312</ele>
        <time>2018-06-14T21:01:58Z</time>
      </trkpt>
      <trkpt lat="45.69498" lon="5.82413">
        <ele>311</ele>
        <time>2018-06-14T21:02:58Z</time>
      </trkpt>
      <trkpt lat="45.69476" lon="5.82439">
        <ele>310</ele>
        <time>2018-06-14T21:03:58Z</time>
      </trkpt>
      <trkpt lat="45.69452" lon="5.82462">
        <ele>310</ele>
        <time>2018-06-14T21:04:58Z</time>
      </trkpt>
      <trkpt lat="45.69426" lon="5.82476">
        <ele>310</ele>
        <time>2018-06-14T21:05:58Z</time>
      </trkpt>
      <trkpt lat="45.69408" lon="5.82484">
        <ele>310</ele>
        <time>2018-06-14T21:06:58Z</time>
      </trkpt>
      <trkpt lat="45.69386" lon="5.82495">
        <ele>310</ele>
        <time>2018-06-14T21:07:58Z</time>
      </trkpt>
      <trkpt lat="45.6936" lon="5.825">
        <ele>311</ele>
        <time>2018-06-14T21:08:58Z</time>
      </trkpt>
      <trkpt lat="45.69345" lon="5.8253">
        <ele>312</ele>
        <time>2018-06-14T21:09:58Z</time>
      </trkpt>
      <trkpt lat="45.6934" lon="5.82525">
        <ele>312</ele>
        <time>2018-06-14T21:10:58Z</time>
      </trkpt>
      <trkpt lat="45.69329" lon="5.82527">
        <ele>314</ele>
        <time>2018-06-14T21:11:58Z</time>
      </trkpt>
      <trkpt lat="45.69317" lon="5.8253">
        <ele>315</ele>
        <time>2018-06-14T21:12:58Z</time>
      </trkpt>
      <trkpt lat="45.69302" lon="5.82538">
        <ele>315</ele>
        <time>2018-06-14T21:13:58Z</time>
      </trkpt>
      <trkpt lat="45.6928" lon="5.82548">
        <ele>317</ele>
        <time>2018-06-14T21:14:58Z</time>
      </trkpt>
      <trkpt lat="45.69275" lon="5.82564">
        <ele>318</ele>
        <time>2018-06-14T21:15:58Z</time>
      </trkpt>
    </trkseg>
  </trk>
</gpx>